<?xml version="1.0" encoding="UTF-8" standalone="no" ?>
<gpx xmlns="http://www.topografix.com/GPX/1/1" xmlns:xsi="http://www.w3.org/2001/XMLSchema-instance" xsi:schemaLocation="http://www.topografix.com/GPX/1/1 http://www.topografix.com/GPX/1/1/gpx.xsd" version="1.1" creator="VisuGPX - https://www.visugpx.com">
  <metadata>
    <name>GR20</name>
    <desc><![CDATA[GR20 - Juin 2015]]></desc>
  </metadata>
  <trk>
    <name><![CDATA[GR20 Tighjettu - Calasima]]></name>
    <trkseg>
      <trkpt lat="42.36244" lon="8.90936">
        <ele>1694.2</ele>
        <time>2015-06-29T05:33:57Z</time>
      </trkpt>
      <trkpt lat="42.36244" lon="8.90937">
        <ele>1694.2</ele>
        <time>2015-06-29T05:33:59Z</time>
      </trkpt>
      <trkpt lat="42.36243" lon="8.90939">
        <ele>1693.6</ele>
        <time>2015-06-29T05:34:06Z</time>
      </trkpt>
      <trkpt lat="42.36241" lon="8.90942">
        <ele>1693.6</ele>
        <time>2015-06-29T05:34:12Z</time>
      </trkpt>
      <trkpt lat="42.36237" lon="8.90943">
        <ele>1692.6</ele>
        <time>2015-06-29T05:34:18Z</time>
      </trkpt>
      <trkpt lat="42.36233" lon="8.90939">
        <ele>1691</ele>
        <time>2015-06-29T05:34:25Z</time>
      </trkpt>
      <trkpt lat="42.36233" lon="8.90943">
        <ele>1689.8</ele>
        <time>2015-06-29T05:34:31Z</time>
      </trkpt>
      <trkpt lat="42.36231" lon="8.90948">
        <ele>1687.8</ele>
        <time>2015-06-29T05:34:45Z</time>
      </trkpt>
      <trkpt lat="42.3623" lon="8.90952">
        <ele>1686.2</ele>
        <time>2015-06-29T05:35:00Z</time>
      </trkpt>
      <trkpt lat="42.36227" lon="8.90953">
        <ele>1685.8</ele>
        <time>2015-06-29T05:35:06Z</time>
      </trkpt>
      <trkpt lat="42.36226" lon="8.90956">
        <ele>1684.6</ele>
        <time>2015-06-29T05:35:13Z</time>
      </trkpt>
      <trkpt lat="42.36223" lon="8.90959">
        <ele>1683</ele>
        <time>2015-06-29T05:35:21Z</time>
      </trkpt>
      <trkpt lat="42.36223" lon="8.90963">
        <ele>1682.2</ele>
        <time>2015-06-29T05:35:27Z</time>
      </trkpt>
      <trkpt lat="42.36226" lon="8.90969">
        <ele>1680.2</ele>
        <time>2015-06-29T05:35:39Z</time>
      </trkpt>
      <trkpt lat="42.36229" lon="8.90978">
        <ele>1679</ele>
        <time>2015-06-29T05:35:51Z</time>
      </trkpt>
      <trkpt lat="42.36225" lon="8.9098">
        <ele>1677.8</ele>
        <time>2015-06-29T05:36:01Z</time>
      </trkpt>
      <trkpt lat="42.36224" lon="8.90985">
        <ele>1676</ele>
        <time>2015-06-29T05:36:14Z</time>
      </trkpt>
      <trkpt lat="42.36217" lon="8.90983">
        <ele>1674.8</ele>
        <time>2015-06-29T05:36:27Z</time>
      </trkpt>
      <trkpt lat="42.36213" lon="8.90983">
        <ele>1673.4</ele>
        <time>2015-06-29T05:36:37Z</time>
      </trkpt>
      <trkpt lat="42.36212" lon="8.90978">
        <ele>1672.6</ele>
        <time>2015-06-29T05:36:45Z</time>
      </trkpt>
      <trkpt lat="42.36208" lon="8.90981">
        <ele>1671.8</ele>
        <time>2015-06-29T05:36:51Z</time>
      </trkpt>
      <trkpt lat="42.36208" lon="8.90983">
        <ele>1671.4</ele>
        <time>2015-06-29T05:36:53Z</time>
      </trkpt>
      <trkpt lat="42.36207" lon="8.90986">
        <ele>1671</ele>
        <time>2015-06-29T05:36:55Z</time>
      </trkpt>
      <trkpt lat="42.36206" lon="8.90989">
        <ele>1670.4</ele>
        <time>2015-06-29T05:36:58Z</time>
      </trkpt>
      <trkpt lat="42.36205" lon="8.90997">
        <ele>1669</ele>
        <time>2015-06-29T05:37:07Z</time>
      </trkpt>
      <trkpt lat="42.36206" lon="8.91004">
        <ele>1667.4</ele>
        <time>2015-06-29T05:37:16Z</time>
      </trkpt>
      <trkpt lat="42.36202" lon="8.91006">
        <ele>1666.2</ele>
        <time>2015-06-29T05:37:25Z</time>
      </trkpt>
      <trkpt lat="42.36197" lon="8.90996">
        <ele>1664.6</ele>
        <time>2015-06-29T05:37:39Z</time>
      </trkpt>
      <trkpt lat="42.36197" lon="8.90996">
        <ele>1664.4</ele>
        <time>2015-06-29T05:37:42Z</time>
      </trkpt>
      <trkpt lat="42.36188" lon="8.90999">
        <ele>1663.2</ele>
        <time>2015-06-29T05:38:29Z</time>
      </trkpt>
      <trkpt lat="42.36184" lon="8.90998">
        <ele>1662</ele>
        <time>2015-06-29T05:38:37Z</time>
      </trkpt>
      <trkpt lat="42.36181" lon="8.90998">
        <ele>1661</ele>
        <time>2015-06-29T05:38:43Z</time>
      </trkpt>
      <trkpt lat="42.36179" lon="8.91001">
        <ele>1659.2</ele>
        <time>2015-06-29T05:38:58Z</time>
      </trkpt>
      <trkpt lat="42.36177" lon="8.91003">
        <ele>1657.8</ele>
        <time>2015-06-29T05:39:09Z</time>
      </trkpt>
      <trkpt lat="42.36174" lon="8.91003">
        <ele>1657.4</ele>
        <time>2015-06-29T05:39:14Z</time>
      </trkpt>
      <trkpt lat="42.3617" lon="8.91004">
        <ele>1656</ele>
        <time>2015-06-29T05:39:22Z</time>
      </trkpt>
      <trkpt lat="42.36167" lon="8.91006">
        <ele>1654.8</ele>
        <time>2015-06-29T05:39:28Z</time>
      </trkpt>
      <trkpt lat="42.36164" lon="8.9101">
        <ele>1653.4</ele>
        <time>2015-06-29T05:39:35Z</time>
      </trkpt>
      <trkpt lat="42.3616" lon="8.91009">
        <ele>1652.2</ele>
        <time>2015-06-29T05:39:41Z</time>
      </trkpt>
      <trkpt lat="42.36156" lon="8.91011">
        <ele>1651.2</ele>
        <time>2015-06-29T05:39:47Z</time>
      </trkpt>
      <trkpt lat="42.36152" lon="8.91009">
        <ele>1650</ele>
        <time>2015-06-29T05:39:52Z</time>
      </trkpt>
      <trkpt lat="42.36151" lon="8.91007">
        <ele>1649.6</ele>
        <time>2015-06-29T05:39:54Z</time>
      </trkpt>
      <trkpt lat="42.3615" lon="8.91004">
        <ele>1649.2</ele>
        <time>2015-06-29T05:39:56Z</time>
      </trkpt>
      <trkpt lat="42.36152" lon="8.90998">
        <ele>1648.6</ele>
        <time>2015-06-29T05:40:01Z</time>
      </trkpt>
      <trkpt lat="42.36148" lon="8.90995">
        <ele>1647.2</ele>
        <time>2015-06-29T05:40:09Z</time>
      </trkpt>
      <trkpt lat="42.36145" lon="8.90994">
        <ele>1646.2</ele>
        <time>2015-06-29T05:40:15Z</time>
      </trkpt>
      <trkpt lat="42.36143" lon="8.90995">
        <ele>1644.6</ele>
        <time>2015-06-29T05:40:23Z</time>
      </trkpt>
      <trkpt lat="42.36138" lon="8.90994">
        <ele>1643.4</ele>
        <time>2015-06-29T05:40:31Z</time>
      </trkpt>
      <trkpt lat="42.36135" lon="8.90991">
        <ele>1642.2</ele>
        <time>2015-06-29T05:40:38Z</time>
      </trkpt>
      <trkpt lat="42.36131" lon="8.90994">
        <ele>1640.8</ele>
        <time>2015-06-29T05:40:46Z</time>
      </trkpt>
      <trkpt lat="42.36128" lon="8.90996">
        <ele>1639.6</ele>
        <time>2015-06-29T05:40:54Z</time>
      </trkpt>
      <trkpt lat="42.36124" lon="8.90995">
        <ele>1638.6</ele>
        <time>2015-06-29T05:41:03Z</time>
      </trkpt>
      <trkpt lat="42.36118" lon="8.90996">
        <ele>1637</ele>
        <time>2015-06-29T05:41:12Z</time>
      </trkpt>
      <trkpt lat="42.36114" lon="8.90994">
        <ele>1635.6</ele>
        <time>2015-06-29T05:41:26Z</time>
      </trkpt>
      <trkpt lat="42.36112" lon="8.90991">
        <ele>1634.6</ele>
        <time>2015-06-29T05:41:37Z</time>
      </trkpt>
      <trkpt lat="42.36109" lon="8.90989">
        <ele>1633.4</ele>
        <time>2015-06-29T05:41:46Z</time>
      </trkpt>
      <trkpt lat="42.36105" lon="8.90987">
        <ele>1632.2</ele>
        <time>2015-06-29T05:41:56Z</time>
      </trkpt>
      <trkpt lat="42.36104" lon="8.90989">
        <ele>1631.4</ele>
        <time>2015-06-29T05:42:01Z</time>
      </trkpt>
      <trkpt lat="42.361" lon="8.90988">
        <ele>1629.2</ele>
        <time>2015-06-29T05:42:15Z</time>
      </trkpt>
      <trkpt lat="42.36096" lon="8.90989">
        <ele>1628.4</ele>
        <time>2015-06-29T05:42:23Z</time>
      </trkpt>
      <trkpt lat="42.36091" lon="8.90987">
        <ele>1627.2</ele>
        <time>2015-06-29T05:42:33Z</time>
      </trkpt>
      <trkpt lat="42.3609" lon="8.90983">
        <ele>1626</ele>
        <time>2015-06-29T05:42:41Z</time>
      </trkpt>
      <trkpt lat="42.36087" lon="8.90982">
        <ele>1624.8</ele>
        <time>2015-06-29T05:42:50Z</time>
      </trkpt>
      <trkpt lat="42.36083" lon="8.9098">
        <ele>1623.4</ele>
        <time>2015-06-29T05:42:58Z</time>
      </trkpt>
      <trkpt lat="42.36081" lon="8.90977">
        <ele>1622.2</ele>
        <time>2015-06-29T05:43:05Z</time>
      </trkpt>
      <trkpt lat="42.36076" lon="8.9097">
        <ele>1620.8</ele>
        <time>2015-06-29T05:43:15Z</time>
      </trkpt>
      <trkpt lat="42.36075" lon="8.90966">
        <ele>1619.6</ele>
        <time>2015-06-29T05:43:23Z</time>
      </trkpt>
      <trkpt lat="42.36074" lon="8.90961">
        <ele>1618.4</ele>
        <time>2015-06-29T05:43:33Z</time>
      </trkpt>
      <trkpt lat="42.36071" lon="8.90956">
        <ele>1617</ele>
        <time>2015-06-29T05:43:42Z</time>
      </trkpt>
      <trkpt lat="42.36069" lon="8.9095">
        <ele>1616.2</ele>
        <time>2015-06-29T05:43:50Z</time>
      </trkpt>
      <trkpt lat="42.36067" lon="8.90945">
        <ele>1614.8</ele>
        <time>2015-06-29T05:43:59Z</time>
      </trkpt>
      <trkpt lat="42.36063" lon="8.90938">
        <ele>1613.2</ele>
        <time>2015-06-29T05:44:10Z</time>
      </trkpt>
      <trkpt lat="42.36058" lon="8.90935">
        <ele>1612.2</ele>
        <time>2015-06-29T05:44:19Z</time>
      </trkpt>
      <trkpt lat="42.36052" lon="8.90934">
        <ele>1611</ele>
        <time>2015-06-29T05:44:28Z</time>
      </trkpt>
      <trkpt lat="42.36048" lon="8.90934">
        <ele>1609.4</ele>
        <time>2015-06-29T05:44:38Z</time>
      </trkpt>
      <trkpt lat="42.36041" lon="8.90938">
        <ele>1608.2</ele>
        <time>2015-06-29T05:44:52Z</time>
      </trkpt>
      <trkpt lat="42.36036" lon="8.90937">
        <ele>1607.2</ele>
        <time>2015-06-29T05:45:04Z</time>
      </trkpt>
      <trkpt lat="42.36032" lon="8.90939">
        <ele>1605.8</ele>
        <time>2015-06-29T05:45:16Z</time>
      </trkpt>
      <trkpt lat="42.36033" lon="8.90942">
        <ele>1604.6</ele>
        <time>2015-06-29T05:45:30Z</time>
      </trkpt>
      <trkpt lat="42.36029" lon="8.90945">
        <ele>1603.6</ele>
        <time>2015-06-29T05:45:37Z</time>
      </trkpt>
      <trkpt lat="42.36028" lon="8.90952">
        <ele>1602.4</ele>
        <time>2015-06-29T05:45:44Z</time>
      </trkpt>
      <trkpt lat="42.36024" lon="8.90957">
        <ele>1601.4</ele>
        <time>2015-06-29T05:45:54Z</time>
      </trkpt>
      <trkpt lat="42.36016" lon="8.90969">
        <ele>1601.4</ele>
        <time>2015-06-29T05:46:14Z</time>
      </trkpt>
      <trkpt lat="42.36008" lon="8.90971">
        <ele>1602</ele>
        <time>2015-06-29T05:46:31Z</time>
      </trkpt>
      <trkpt lat="42.36005" lon="8.90976">
        <ele>1601.8</ele>
        <time>2015-06-29T05:46:36Z</time>
      </trkpt>
      <trkpt lat="42.35999" lon="8.90977">
        <ele>1600.6</ele>
        <time>2015-06-29T05:46:57Z</time>
      </trkpt>
      <trkpt lat="42.35995" lon="8.90977">
        <ele>1599.8</ele>
        <time>2015-06-29T05:47:09Z</time>
      </trkpt>
      <trkpt lat="42.35994" lon="8.9098">
        <ele>1599.6</ele>
        <time>2015-06-29T05:47:13Z</time>
      </trkpt>
      <trkpt lat="42.35986" lon="8.90986">
        <ele>1597.4</ele>
        <time>2015-06-29T05:47:25Z</time>
      </trkpt>
      <trkpt lat="42.3598" lon="8.9099">
        <ele>1596</ele>
        <time>2015-06-29T05:47:38Z</time>
      </trkpt>
      <trkpt lat="42.35974" lon="8.90993">
        <ele>1595</ele>
        <time>2015-06-29T05:47:48Z</time>
      </trkpt>
      <trkpt lat="42.35971" lon="8.90994">
        <ele>1593.8</ele>
        <time>2015-06-29T05:47:59Z</time>
      </trkpt>
      <trkpt lat="42.35966" lon="8.90997">
        <ele>1592.6</ele>
        <time>2015-06-29T05:48:15Z</time>
      </trkpt>
      <trkpt lat="42.35962" lon="8.90996">
        <ele>1591.2</ele>
        <time>2015-06-29T05:48:25Z</time>
      </trkpt>
      <trkpt lat="42.35957" lon="8.90997">
        <ele>1589.8</ele>
        <time>2015-06-29T05:48:42Z</time>
      </trkpt>
      <trkpt lat="42.35956" lon="8.90998">
        <ele>1588.8</ele>
        <time>2015-06-29T05:48:49Z</time>
      </trkpt>
      <trkpt lat="42.35953" lon="8.90997">
        <ele>1587.6</ele>
        <time>2015-06-29T05:49:02Z</time>
      </trkpt>
      <trkpt lat="42.35951" lon="8.90998">
        <ele>1586</ele>
        <time>2015-06-29T05:49:13Z</time>
      </trkpt>
      <trkpt lat="42.35948" lon="8.90998">
        <ele>1584.8</ele>
        <time>2015-06-29T05:49:25Z</time>
      </trkpt>
      <trkpt lat="42.35946" lon="8.90997">
        <ele>1584</ele>
        <time>2015-06-29T05:49:35Z</time>
      </trkpt>
      <trkpt lat="42.35944" lon="8.90997">
        <ele>1582.8</ele>
        <time>2015-06-29T05:49:43Z</time>
      </trkpt>
      <trkpt lat="42.35942" lon="8.90996">
        <ele>1580.8</ele>
        <time>2015-06-29T05:50:00Z</time>
      </trkpt>
      <trkpt lat="42.35939" lon="8.91">
        <ele>1580.4</ele>
        <time>2015-06-29T05:50:07Z</time>
      </trkpt>
      <trkpt lat="42.35937" lon="8.91002">
        <ele>1578.8</ele>
        <time>2015-06-29T05:50:18Z</time>
      </trkpt>
      <trkpt lat="42.35933" lon="8.91001">
        <ele>1578</ele>
        <time>2015-06-29T05:50:26Z</time>
      </trkpt>
      <trkpt lat="42.35929" lon="8.91">
        <ele>1576.6</ele>
        <time>2015-06-29T05:50:35Z</time>
      </trkpt>
      <trkpt lat="42.35927" lon="8.91">
        <ele>1575.4</ele>
        <time>2015-06-29T05:50:41Z</time>
      </trkpt>
      <trkpt lat="42.35925" lon="8.90999">
        <ele>1574.2</ele>
        <time>2015-06-29T05:50:50Z</time>
      </trkpt>
      <trkpt lat="42.35923" lon="8.90995">
        <ele>1572.8</ele>
        <time>2015-06-29T05:50:58Z</time>
      </trkpt>
      <trkpt lat="42.35923" lon="8.90991">
        <ele>1571.8</ele>
        <time>2015-06-29T05:51:04Z</time>
      </trkpt>
      <trkpt lat="42.35919" lon="8.90986">
        <ele>1569.8</ele>
        <time>2015-06-29T05:51:19Z</time>
      </trkpt>
      <trkpt lat="42.35916" lon="8.90986">
        <ele>1569.2</ele>
        <time>2015-06-29T05:51:25Z</time>
      </trkpt>
      <trkpt lat="42.35913" lon="8.90986">
        <ele>1567.8</ele>
        <time>2015-06-29T05:51:33Z</time>
      </trkpt>
      <trkpt lat="42.35911" lon="8.90983">
        <ele>1566</ele>
        <time>2015-06-29T05:51:45Z</time>
      </trkpt>
      <trkpt lat="42.35906" lon="8.90989">
        <ele>1565</ele>
        <time>2015-06-29T05:51:56Z</time>
      </trkpt>
      <trkpt lat="42.35901" lon="8.90991">
        <ele>1564.2</ele>
        <time>2015-06-29T05:52:03Z</time>
      </trkpt>
      <trkpt lat="42.35898" lon="8.90995">
        <ele>1562.6</ele>
        <time>2015-06-29T05:52:11Z</time>
      </trkpt>
      <trkpt lat="42.35893" lon="8.90994">
        <ele>1561.2</ele>
        <time>2015-06-29T05:52:20Z</time>
      </trkpt>
      <trkpt lat="42.35892" lon="8.9099">
        <ele>1560.4</ele>
        <time>2015-06-29T05:52:28Z</time>
      </trkpt>
      <trkpt lat="42.35889" lon="8.90991">
        <ele>1559</ele>
        <time>2015-06-29T05:52:38Z</time>
      </trkpt>
      <trkpt lat="42.35884" lon="8.9099">
        <ele>1557.8</ele>
        <time>2015-06-29T05:52:48Z</time>
      </trkpt>
      <trkpt lat="42.3588" lon="8.90988">
        <ele>1556.4</ele>
        <time>2015-06-29T05:52:58Z</time>
      </trkpt>
      <trkpt lat="42.35877" lon="8.90987">
        <ele>1555.4</ele>
        <time>2015-06-29T05:53:06Z</time>
      </trkpt>
      <trkpt lat="42.35874" lon="8.90985">
        <ele>1554</ele>
        <time>2015-06-29T05:53:16Z</time>
      </trkpt>
      <trkpt lat="42.3587" lon="8.90984">
        <ele>1552.6</ele>
        <time>2015-06-29T05:53:29Z</time>
      </trkpt>
      <trkpt lat="42.35867" lon="8.90983">
        <ele>1552</ele>
        <time>2015-06-29T05:53:36Z</time>
      </trkpt>
      <trkpt lat="42.35864" lon="8.90983">
        <ele>1550.4</ele>
        <time>2015-06-29T05:53:45Z</time>
      </trkpt>
      <trkpt lat="42.3586" lon="8.90983">
        <ele>1549</ele>
        <time>2015-06-29T05:53:55Z</time>
      </trkpt>
      <trkpt lat="42.35859" lon="8.90983">
        <ele>1547.8</ele>
        <time>2015-06-29T05:54:07Z</time>
      </trkpt>
      <trkpt lat="42.35854" lon="8.90981">
        <ele>1546.4</ele>
        <time>2015-06-29T05:54:31Z</time>
      </trkpt>
      <trkpt lat="42.35848" lon="8.90978">
        <ele>1545.4</ele>
        <time>2015-06-29T05:54:41Z</time>
      </trkpt>
      <trkpt lat="42.35844" lon="8.90976">
        <ele>1544.4</ele>
        <time>2015-06-29T05:54:49Z</time>
      </trkpt>
      <trkpt lat="42.35836" lon="8.90978">
        <ele>1543</ele>
        <time>2015-06-29T05:55:01Z</time>
      </trkpt>
      <trkpt lat="42.3583" lon="8.90976">
        <ele>1541.8</ele>
        <time>2015-06-29T05:55:14Z</time>
      </trkpt>
      <trkpt lat="42.35825" lon="8.9097">
        <ele>1540.6</ele>
        <time>2015-06-29T05:55:28Z</time>
      </trkpt>
      <trkpt lat="42.35821" lon="8.90971">
        <ele>1539.4</ele>
        <time>2015-06-29T05:55:37Z</time>
      </trkpt>
      <trkpt lat="42.35817" lon="8.90972">
        <ele>1538</ele>
        <time>2015-06-29T05:55:49Z</time>
      </trkpt>
      <trkpt lat="42.3581" lon="8.90972">
        <ele>1537</ele>
        <time>2015-06-29T05:56:00Z</time>
      </trkpt>
      <trkpt lat="42.35806" lon="8.90975">
        <ele>1535.6</ele>
        <time>2015-06-29T05:56:11Z</time>
      </trkpt>
      <trkpt lat="42.35804" lon="8.90979">
        <ele>1534.6</ele>
        <time>2015-06-29T05:56:22Z</time>
      </trkpt>
      <trkpt lat="42.35796" lon="8.90982">
        <ele>1533.4</ele>
        <time>2015-06-29T05:56:48Z</time>
      </trkpt>
      <trkpt lat="42.35789" lon="8.90981">
        <ele>1532.2</ele>
        <time>2015-06-29T05:56:57Z</time>
      </trkpt>
      <trkpt lat="42.35779" lon="8.90976">
        <ele>1530.4</ele>
        <time>2015-06-29T05:57:11Z</time>
      </trkpt>
      <trkpt lat="42.35772" lon="8.90978">
        <ele>1529.6</ele>
        <time>2015-06-29T05:57:24Z</time>
      </trkpt>
      <trkpt lat="42.35765" lon="8.90979">
        <ele>1528.2</ele>
        <time>2015-06-29T05:57:34Z</time>
      </trkpt>
      <trkpt lat="42.35757" lon="8.90974">
        <ele>1527.4</ele>
        <time>2015-06-29T05:57:46Z</time>
      </trkpt>
      <trkpt lat="42.35749" lon="8.9097">
        <ele>1525.8</ele>
        <time>2015-06-29T05:57:58Z</time>
      </trkpt>
      <trkpt lat="42.35745" lon="8.90969">
        <ele>1525.2</ele>
        <time>2015-06-29T05:58:06Z</time>
      </trkpt>
      <trkpt lat="42.35742" lon="8.90966">
        <ele>1524</ele>
        <time>2015-06-29T05:58:14Z</time>
      </trkpt>
      <trkpt lat="42.35738" lon="8.90964">
        <ele>1522.8</ele>
        <time>2015-06-29T05:58:22Z</time>
      </trkpt>
      <trkpt lat="42.35732" lon="8.90957">
        <ele>1521.6</ele>
        <time>2015-06-29T05:58:33Z</time>
      </trkpt>
      <trkpt lat="42.35729" lon="8.90951">
        <ele>1520.4</ele>
        <time>2015-06-29T05:58:40Z</time>
      </trkpt>
      <trkpt lat="42.35715" lon="8.90935">
        <ele>1519.6</ele>
        <time>2015-06-29T05:59:10Z</time>
      </trkpt>
      <trkpt lat="42.35705" lon="8.90943">
        <ele>1520</ele>
        <time>2015-06-29T05:59:29Z</time>
      </trkpt>
      <trkpt lat="42.35696" lon="8.90948">
        <ele>1519.2</ele>
        <time>2015-06-29T05:59:43Z</time>
      </trkpt>
      <trkpt lat="42.35688" lon="8.90953">
        <ele>1518</ele>
        <time>2015-06-29T05:59:54Z</time>
      </trkpt>
      <trkpt lat="42.35683" lon="8.90954">
        <ele>1517.2</ele>
        <time>2015-06-29T06:00:02Z</time>
      </trkpt>
      <trkpt lat="42.35666" lon="8.90954">
        <ele>1516</ele>
        <time>2015-06-29T06:00:26Z</time>
      </trkpt>
      <trkpt lat="42.35661" lon="8.90957">
        <ele>1515.2</ele>
        <time>2015-06-29T06:00:36Z</time>
      </trkpt>
      <trkpt lat="42.35656" lon="8.90963">
        <ele>1514.2</ele>
        <time>2015-06-29T06:00:46Z</time>
      </trkpt>
      <trkpt lat="42.3565" lon="8.90965">
        <ele>1513.2</ele>
        <time>2015-06-29T06:00:55Z</time>
      </trkpt>
      <trkpt lat="42.35636" lon="8.90969">
        <ele>1512</ele>
        <time>2015-06-29T06:01:13Z</time>
      </trkpt>
      <trkpt lat="42.3563" lon="8.90971">
        <ele>1510.6</ele>
        <time>2015-06-29T06:01:25Z</time>
      </trkpt>
      <trkpt lat="42.35622" lon="8.90971">
        <ele>1509.6</ele>
        <time>2015-06-29T06:01:37Z</time>
      </trkpt>
      <trkpt lat="42.3562" lon="8.90967">
        <ele>1509</ele>
        <time>2015-06-29T06:01:44Z</time>
      </trkpt>
      <trkpt lat="42.35617" lon="8.90962">
        <ele>1507.6</ele>
        <time>2015-06-29T06:01:52Z</time>
      </trkpt>
      <trkpt lat="42.35612" lon="8.90961">
        <ele>1506.6</ele>
        <time>2015-06-29T06:02:02Z</time>
      </trkpt>
      <trkpt lat="42.35607" lon="8.90959">
        <ele>1505.2</ele>
        <time>2015-06-29T06:02:12Z</time>
      </trkpt>
      <trkpt lat="42.35603" lon="8.90959">
        <ele>1504</ele>
        <time>2015-06-29T06:02:23Z</time>
      </trkpt>
      <trkpt lat="42.35599" lon="8.9096">
        <ele>1503.2</ele>
        <time>2015-06-29T06:02:32Z</time>
      </trkpt>
      <trkpt lat="42.35593" lon="8.90961">
        <ele>1502</ele>
        <time>2015-06-29T06:02:43Z</time>
      </trkpt>
      <trkpt lat="42.35589" lon="8.90962">
        <ele>1501</ele>
        <time>2015-06-29T06:02:54Z</time>
      </trkpt>
      <trkpt lat="42.35585" lon="8.90958">
        <ele>1500.2</ele>
        <time>2015-06-29T06:03:06Z</time>
      </trkpt>
      <trkpt lat="42.3558" lon="8.9096">
        <ele>1498.8</ele>
        <time>2015-06-29T06:03:15Z</time>
      </trkpt>
      <trkpt lat="42.35573" lon="8.90962">
        <ele>1498</ele>
        <time>2015-06-29T06:03:25Z</time>
      </trkpt>
      <trkpt lat="42.35566" lon="8.90958">
        <ele>1496.8</ele>
        <time>2015-06-29T06:03:36Z</time>
      </trkpt>
      <trkpt lat="42.35561" lon="8.90958">
        <ele>1495.6</ele>
        <time>2015-06-29T06:03:48Z</time>
      </trkpt>
      <trkpt lat="42.35558" lon="8.90959">
        <ele>1495.2</ele>
        <time>2015-06-29T06:03:52Z</time>
      </trkpt>
      <trkpt lat="42.35556" lon="8.90959">
        <ele>1494.6</ele>
        <time>2015-06-29T06:03:57Z</time>
      </trkpt>
      <trkpt lat="42.3555" lon="8.90961">
        <ele>1493.4</ele>
        <time>2015-06-29T06:04:07Z</time>
      </trkpt>
      <trkpt lat="42.35546" lon="8.9096">
        <ele>1492.4</ele>
        <time>2015-06-29T06:04:17Z</time>
      </trkpt>
      <trkpt lat="42.35542" lon="8.90961">
        <ele>1491.2</ele>
        <time>2015-06-29T06:04:27Z</time>
      </trkpt>
      <trkpt lat="42.35536" lon="8.90959">
        <ele>1490</ele>
        <time>2015-06-29T06:04:36Z</time>
      </trkpt>
      <trkpt lat="42.35531" lon="8.90956">
        <ele>1488.8</ele>
        <time>2015-06-29T06:04:47Z</time>
      </trkpt>
      <trkpt lat="42.35527" lon="8.90958">
        <ele>1487.8</ele>
        <time>2015-06-29T06:04:57Z</time>
      </trkpt>
      <trkpt lat="42.35525" lon="8.90959">
        <ele>1486.6</ele>
        <time>2015-06-29T06:05:11Z</time>
      </trkpt>
      <trkpt lat="42.35517" lon="8.90959">
        <ele>1485.8</ele>
        <time>2015-06-29T06:05:21Z</time>
      </trkpt>
      <trkpt lat="42.35504" lon="8.90958">
        <ele>1484</ele>
        <time>2015-06-29T06:05:43Z</time>
      </trkpt>
      <trkpt lat="42.355" lon="8.90954">
        <ele>1483.2</ele>
        <time>2015-06-29T06:05:56Z</time>
      </trkpt>
      <trkpt lat="42.35495" lon="8.90952">
        <ele>1482.4</ele>
        <time>2015-06-29T06:06:08Z</time>
      </trkpt>
      <trkpt lat="42.35486" lon="8.90947">
        <ele>1481</ele>
        <time>2015-06-29T06:06:25Z</time>
      </trkpt>
      <trkpt lat="42.35478" lon="8.90944">
        <ele>1479.8</ele>
        <time>2015-06-29T06:06:51Z</time>
      </trkpt>
      <trkpt lat="42.35457" lon="8.90942">
        <ele>1478.6</ele>
        <time>2015-06-29T06:07:23Z</time>
      </trkpt>
      <trkpt lat="42.35442" lon="8.90934">
        <ele>1477.2</ele>
        <time>2015-06-29T06:07:48Z</time>
      </trkpt>
      <trkpt lat="42.35408" lon="8.90899">
        <ele>1476.2</ele>
        <time>2015-06-29T06:08:42Z</time>
      </trkpt>
      <trkpt lat="42.35386" lon="8.90871">
        <ele>1475.8</ele>
        <time>2015-06-29T06:09:14Z</time>
      </trkpt>
      <trkpt lat="42.35377" lon="8.9085">
        <ele>1474.6</ele>
        <time>2015-06-29T06:09:37Z</time>
      </trkpt>
      <trkpt lat="42.35368" lon="8.9083">
        <ele>1473.6</ele>
        <time>2015-06-29T06:09:59Z</time>
      </trkpt>
      <trkpt lat="42.35367" lon="8.90826">
        <ele>1473.4</ele>
        <time>2015-06-29T06:10:02Z</time>
      </trkpt>
      <trkpt lat="42.35365" lon="8.90818">
        <ele>1473</ele>
        <time>2015-06-29T06:10:11Z</time>
      </trkpt>
      <trkpt lat="42.3536" lon="8.90818">
        <ele>1471.6</ele>
        <time>2015-06-29T06:10:22Z</time>
      </trkpt>
      <trkpt lat="42.35353" lon="8.90814">
        <ele>1470.6</ele>
        <time>2015-06-29T06:10:35Z</time>
      </trkpt>
      <trkpt lat="42.35348" lon="8.90811">
        <ele>1469.6</ele>
        <time>2015-06-29T06:10:43Z</time>
      </trkpt>
      <trkpt lat="42.35346" lon="8.90811">
        <ele>1469</ele>
        <time>2015-06-29T06:10:47Z</time>
      </trkpt>
      <trkpt lat="42.35341" lon="8.90808">
        <ele>1467</ele>
        <time>2015-06-29T06:10:57Z</time>
      </trkpt>
      <trkpt lat="42.3534" lon="8.90796">
        <ele>1465.8</ele>
        <time>2015-06-29T06:11:12Z</time>
      </trkpt>
      <trkpt lat="42.35337" lon="8.90788">
        <ele>1465.2</ele>
        <time>2015-06-29T06:11:20Z</time>
      </trkpt>
      <trkpt lat="42.35335" lon="8.90788">
        <ele>1464.4</ele>
        <time>2015-06-29T06:11:26Z</time>
      </trkpt>
      <trkpt lat="42.35331" lon="8.9079">
        <ele>1463</ele>
        <time>2015-06-29T06:11:32Z</time>
      </trkpt>
      <trkpt lat="42.35329" lon="8.90793">
        <ele>1461.8</ele>
        <time>2015-06-29T06:11:38Z</time>
      </trkpt>
      <trkpt lat="42.35325" lon="8.90793">
        <ele>1460.6</ele>
        <time>2015-06-29T06:11:47Z</time>
      </trkpt>
      <trkpt lat="42.35322" lon="8.90787">
        <ele>1459.4</ele>
        <time>2015-06-29T06:11:54Z</time>
      </trkpt>
      <trkpt lat="42.3532" lon="8.90786">
        <ele>1459</ele>
        <time>2015-06-29T06:11:56Z</time>
      </trkpt>
      <trkpt lat="42.35319" lon="8.90785">
        <ele>1458.8</ele>
        <time>2015-06-29T06:11:59Z</time>
      </trkpt>
      <trkpt lat="42.35315" lon="8.90791">
        <ele>1457.4</ele>
        <time>2015-06-29T06:12:06Z</time>
      </trkpt>
      <trkpt lat="42.35306" lon="8.90784">
        <ele>1455.8</ele>
        <time>2015-06-29T06:12:38Z</time>
      </trkpt>
      <trkpt lat="42.35302" lon="8.90783">
        <ele>1455.4</ele>
        <time>2015-06-29T06:12:43Z</time>
      </trkpt>
      <trkpt lat="42.3529" lon="8.90795">
        <ele>1453.2</ele>
        <time>2015-06-29T06:13:10Z</time>
      </trkpt>
      <trkpt lat="42.35294" lon="8.90784">
        <ele>1453</ele>
        <time>2015-06-29T06:14:57Z</time>
      </trkpt>
      <trkpt lat="42.3529" lon="8.90786">
        <ele>1453.4</ele>
        <time>2015-06-29T06:18:01Z</time>
      </trkpt>
      <trkpt lat="42.35289" lon="8.90782">
        <ele>1452.8</ele>
        <time>2015-06-29T06:21:30Z</time>
      </trkpt>
      <trkpt lat="42.35294" lon="8.90785">
        <ele>1452.8</ele>
        <time>2015-06-29T06:21:39Z</time>
      </trkpt>
      <trkpt lat="42.35309" lon="8.9078">
        <ele>1452.4</ele>
        <time>2015-06-29T06:25:03Z</time>
      </trkpt>
      <trkpt lat="42.353" lon="8.90787">
        <ele>1452.2</ele>
        <time>2015-06-29T06:25:42Z</time>
      </trkpt>
      <trkpt lat="42.35291" lon="8.90778">
        <ele>1452.2</ele>
        <time>2015-06-29T06:28:16Z</time>
      </trkpt>
      <trkpt lat="42.35294" lon="8.90783">
        <ele>1452.4</ele>
        <time>2015-06-29T06:29:12Z</time>
      </trkpt>
      <trkpt lat="42.35291" lon="8.90796">
        <ele>1452.2</ele>
        <time>2015-06-29T06:29:51Z</time>
      </trkpt>
      <trkpt lat="42.35292" lon="8.90796">
        <ele>1452</ele>
        <time>2015-06-29T06:30:03Z</time>
      </trkpt>
      <trkpt lat="42.35293" lon="8.90796">
        <ele>1452.2</ele>
        <time>2015-06-29T06:30:08Z</time>
      </trkpt>
      <trkpt lat="42.35293" lon="8.90796">
        <ele>1452</ele>
        <time>2015-06-29T06:30:13Z</time>
      </trkpt>
      <trkpt lat="42.35285" lon="8.90806">
        <ele>1451.6</ele>
        <time>2015-06-29T06:30:52Z</time>
      </trkpt>
      <trkpt lat="42.35283" lon="8.90814">
        <ele>1451</ele>
        <time>2015-06-29T06:30:59Z</time>
      </trkpt>
      <trkpt lat="42.35279" lon="8.90817">
        <ele>1450.2</ele>
        <time>2015-06-29T06:31:15Z</time>
      </trkpt>
      <trkpt lat="42.35275" lon="8.90821">
        <ele>1450</ele>
        <time>2015-06-29T06:31:22Z</time>
      </trkpt>
      <trkpt lat="42.35272" lon="8.90828">
        <ele>1448.6</ele>
        <time>2015-06-29T06:31:30Z</time>
      </trkpt>
      <trkpt lat="42.35266" lon="8.90827">
        <ele>1447.4</ele>
        <time>2015-06-29T06:31:53Z</time>
      </trkpt>
      <trkpt lat="42.35262" lon="8.90825">
        <ele>1446.6</ele>
        <time>2015-06-29T06:32:00Z</time>
      </trkpt>
      <trkpt lat="42.35257" lon="8.90823">
        <ele>1445.2</ele>
        <time>2015-06-29T06:32:08Z</time>
      </trkpt>
      <trkpt lat="42.35253" lon="8.90823">
        <ele>1444.4</ele>
        <time>2015-06-29T06:32:16Z</time>
      </trkpt>
      <trkpt lat="42.35249" lon="8.90821">
        <ele>1443</ele>
        <time>2015-06-29T06:32:27Z</time>
      </trkpt>
      <trkpt lat="42.35246" lon="8.90818">
        <ele>1442.4</ele>
        <time>2015-06-29T06:32:33Z</time>
      </trkpt>
      <trkpt lat="42.35244" lon="8.90816">
        <ele>1441.4</ele>
        <time>2015-06-29T06:32:38Z</time>
      </trkpt>
      <trkpt lat="42.35241" lon="8.90814">
        <ele>1440.2</ele>
        <time>2015-06-29T06:32:43Z</time>
      </trkpt>
      <trkpt lat="42.35238" lon="8.90817">
        <ele>1438.8</ele>
        <time>2015-06-29T06:32:49Z</time>
      </trkpt>
      <trkpt lat="42.35227" lon="8.90826">
        <ele>1437.4</ele>
        <time>2015-06-29T06:33:55Z</time>
      </trkpt>
      <trkpt lat="42.35222" lon="8.90826">
        <ele>1438.8</ele>
        <time>2015-06-29T06:34:03Z</time>
      </trkpt>
      <trkpt lat="42.35215" lon="8.90833">
        <ele>1439</ele>
        <time>2015-06-29T06:34:17Z</time>
      </trkpt>
      <trkpt lat="42.35209" lon="8.90835">
        <ele>1438</ele>
        <time>2015-06-29T06:34:30Z</time>
      </trkpt>
      <trkpt lat="42.35204" lon="8.9083">
        <ele>1436.8</ele>
        <time>2015-06-29T06:34:40Z</time>
      </trkpt>
      <trkpt lat="42.35199" lon="8.90832">
        <ele>1436</ele>
        <time>2015-06-29T06:34:47Z</time>
      </trkpt>
      <trkpt lat="42.35193" lon="8.90833">
        <ele>1434.8</ele>
        <time>2015-06-29T06:34:55Z</time>
      </trkpt>
      <trkpt lat="42.35189" lon="8.9083">
        <ele>1433.6</ele>
        <time>2015-06-29T06:35:02Z</time>
      </trkpt>
      <trkpt lat="42.35184" lon="8.9083">
        <ele>1432.6</ele>
        <time>2015-06-29T06:35:09Z</time>
      </trkpt>
      <trkpt lat="42.35178" lon="8.90834">
        <ele>1431.4</ele>
        <time>2015-06-29T06:35:19Z</time>
      </trkpt>
      <trkpt lat="42.35174" lon="8.90833">
        <ele>1430.6</ele>
        <time>2015-06-29T06:35:25Z</time>
      </trkpt>
      <trkpt lat="42.35169" lon="8.90836">
        <ele>1429</ele>
        <time>2015-06-29T06:35:35Z</time>
      </trkpt>
      <trkpt lat="42.35165" lon="8.90837">
        <ele>1428</ele>
        <time>2015-06-29T06:35:44Z</time>
      </trkpt>
      <trkpt lat="42.35161" lon="8.90839">
        <ele>1427</ele>
        <time>2015-06-29T06:35:51Z</time>
      </trkpt>
      <trkpt lat="42.35157" lon="8.90838">
        <ele>1425.8</ele>
        <time>2015-06-29T06:36:01Z</time>
      </trkpt>
      <trkpt lat="42.3515" lon="8.90839">
        <ele>1424.8</ele>
        <time>2015-06-29T06:36:09Z</time>
      </trkpt>
      <trkpt lat="42.35145" lon="8.90834">
        <ele>1423.6</ele>
        <time>2015-06-29T06:36:17Z</time>
      </trkpt>
      <trkpt lat="42.35138" lon="8.90834">
        <ele>1422.2</ele>
        <time>2015-06-29T06:36:27Z</time>
      </trkpt>
      <trkpt lat="42.3513" lon="8.90833">
        <ele>1421</ele>
        <time>2015-06-29T06:36:37Z</time>
      </trkpt>
      <trkpt lat="42.35125" lon="8.90834">
        <ele>1419.8</ele>
        <time>2015-06-29T06:36:45Z</time>
      </trkpt>
      <trkpt lat="42.35117" lon="8.90835">
        <ele>1418.8</ele>
        <time>2015-06-29T06:36:56Z</time>
      </trkpt>
      <trkpt lat="42.35112" lon="8.90837">
        <ele>1417.8</ele>
        <time>2015-06-29T06:37:05Z</time>
      </trkpt>
      <trkpt lat="42.35112" lon="8.90833">
        <ele>1416.8</ele>
        <time>2015-06-29T06:37:12Z</time>
      </trkpt>
      <trkpt lat="42.35109" lon="8.9083">
        <ele>1415.4</ele>
        <time>2015-06-29T06:37:21Z</time>
      </trkpt>
      <trkpt lat="42.35105" lon="8.90832">
        <ele>1414.2</ele>
        <time>2015-06-29T06:37:29Z</time>
      </trkpt>
      <trkpt lat="42.351" lon="8.90836">
        <ele>1413.2</ele>
        <time>2015-06-29T06:37:37Z</time>
      </trkpt>
      <trkpt lat="42.35096" lon="8.90842">
        <ele>1412</ele>
        <time>2015-06-29T06:37:47Z</time>
      </trkpt>
      <trkpt lat="42.35092" lon="8.90848">
        <ele>1410.6</ele>
        <time>2015-06-29T06:37:55Z</time>
      </trkpt>
      <trkpt lat="42.35087" lon="8.90854">
        <ele>1409.2</ele>
        <time>2015-06-29T06:38:09Z</time>
      </trkpt>
      <trkpt lat="42.35081" lon="8.90855">
        <ele>1408.6</ele>
        <time>2015-06-29T06:38:19Z</time>
      </trkpt>
      <trkpt lat="42.3507" lon="8.9086">
        <ele>1407.2</ele>
        <time>2015-06-29T06:38:33Z</time>
      </trkpt>
      <trkpt lat="42.35066" lon="8.90866">
        <ele>1406.2</ele>
        <time>2015-06-29T06:38:42Z</time>
      </trkpt>
      <trkpt lat="42.35061" lon="8.90867">
        <ele>1405.2</ele>
        <time>2015-06-29T06:38:53Z</time>
      </trkpt>
      <trkpt lat="42.35051" lon="8.90869">
        <ele>1403.8</ele>
        <time>2015-06-29T06:39:04Z</time>
      </trkpt>
      <trkpt lat="42.35045" lon="8.90868">
        <ele>1403.4</ele>
        <time>2015-06-29T06:39:11Z</time>
      </trkpt>
      <trkpt lat="42.35039" lon="8.90869">
        <ele>1402</ele>
        <time>2015-06-29T06:39:18Z</time>
      </trkpt>
      <trkpt lat="42.35034" lon="8.90866">
        <ele>1401</ele>
        <time>2015-06-29T06:39:25Z</time>
      </trkpt>
      <trkpt lat="42.35025" lon="8.90867">
        <ele>1399.6</ele>
        <time>2015-06-29T06:39:35Z</time>
      </trkpt>
      <trkpt lat="42.35018" lon="8.90864">
        <ele>1398.6</ele>
        <time>2015-06-29T06:39:44Z</time>
      </trkpt>
      <trkpt lat="42.35009" lon="8.90866">
        <ele>1397.6</ele>
        <time>2015-06-29T06:39:55Z</time>
      </trkpt>
      <trkpt lat="42.35009" lon="8.90866">
        <ele>1397.4</ele>
        <time>2015-06-29T06:39:56Z</time>
      </trkpt>
      <trkpt lat="42.35" lon="8.90867">
        <ele>1396.4</ele>
        <time>2015-06-29T06:40:05Z</time>
      </trkpt>
      <trkpt lat="42.3499" lon="8.90876">
        <ele>1394.8</ele>
        <time>2015-06-29T06:40:23Z</time>
      </trkpt>
      <trkpt lat="42.3498" lon="8.90878">
        <ele>1394</ele>
        <time>2015-06-29T06:40:36Z</time>
      </trkpt>
      <trkpt lat="42.34971" lon="8.90881">
        <ele>1393.2</ele>
        <time>2015-06-29T06:40:46Z</time>
      </trkpt>
      <trkpt lat="42.34966" lon="8.90885">
        <ele>1392.8</ele>
        <time>2015-06-29T06:40:50Z</time>
      </trkpt>
      <trkpt lat="42.34958" lon="8.9089">
        <ele>1392</ele>
        <time>2015-06-29T06:41:00Z</time>
      </trkpt>
      <trkpt lat="42.3495" lon="8.90896">
        <ele>1390.6</ele>
        <time>2015-06-29T06:41:13Z</time>
      </trkpt>
      <trkpt lat="42.34944" lon="8.909">
        <ele>1390.2</ele>
        <time>2015-06-29T06:41:20Z</time>
      </trkpt>
      <trkpt lat="42.34938" lon="8.90903">
        <ele>1389.8</ele>
        <time>2015-06-29T06:41:25Z</time>
      </trkpt>
      <trkpt lat="42.34921" lon="8.90906">
        <ele>1388.6</ele>
        <time>2015-06-29T06:41:37Z</time>
      </trkpt>
      <trkpt lat="42.34914" lon="8.90902">
        <ele>1387.8</ele>
        <time>2015-06-29T06:41:45Z</time>
      </trkpt>
      <trkpt lat="42.34906" lon="8.90896">
        <ele>1386.8</ele>
        <time>2015-06-29T06:41:53Z</time>
      </trkpt>
      <trkpt lat="42.34893" lon="8.90887">
        <ele>1385.8</ele>
        <time>2015-06-29T06:42:01Z</time>
      </trkpt>
      <trkpt lat="42.34866" lon="8.90885">
        <ele>1384</ele>
        <time>2015-06-29T06:42:26Z</time>
      </trkpt>
      <trkpt lat="42.34837" lon="8.90887">
        <ele>1384.6</ele>
        <time>2015-06-29T06:43:02Z</time>
      </trkpt>
      <trkpt lat="42.34834" lon="8.90888">
        <ele>1384.8</ele>
        <time>2015-06-29T06:43:05Z</time>
      </trkpt>
      <trkpt lat="42.34809" lon="8.90897">
        <ele>1383.4</ele>
        <time>2015-06-29T06:43:30Z</time>
      </trkpt>
      <trkpt lat="42.34799" lon="8.90902">
        <ele>1382.6</ele>
        <time>2015-06-29T06:43:42Z</time>
      </trkpt>
      <trkpt lat="42.34794" lon="8.90903">
        <ele>1382.2</ele>
        <time>2015-06-29T06:43:48Z</time>
      </trkpt>
      <trkpt lat="42.34779" lon="8.90904">
        <ele>1381.6</ele>
        <time>2015-06-29T06:44:04Z</time>
      </trkpt>
      <trkpt lat="42.34775" lon="8.90903">
        <ele>1381</ele>
        <time>2015-06-29T06:44:09Z</time>
      </trkpt>
      <trkpt lat="42.34772" lon="8.90902">
        <ele>1380.6</ele>
        <time>2015-06-29T06:44:13Z</time>
      </trkpt>
      <trkpt lat="42.34763" lon="8.90899">
        <ele>1379.6</ele>
        <time>2015-06-29T06:44:21Z</time>
      </trkpt>
      <trkpt lat="42.34754" lon="8.90895">
        <ele>1378.6</ele>
        <time>2015-06-29T06:44:29Z</time>
      </trkpt>
      <trkpt lat="42.34748" lon="8.90894">
        <ele>1377.6</ele>
        <time>2015-06-29T06:44:37Z</time>
      </trkpt>
      <trkpt lat="42.34742" lon="8.90893">
        <ele>1376.6</ele>
        <time>2015-06-29T06:44:45Z</time>
      </trkpt>
      <trkpt lat="42.34737" lon="8.90891">
        <ele>1375.6</ele>
        <time>2015-06-29T06:44:52Z</time>
      </trkpt>
      <trkpt lat="42.34728" lon="8.90889">
        <ele>1374.4</ele>
        <time>2015-06-29T06:45:00Z</time>
      </trkpt>
      <trkpt lat="42.34721" lon="8.90886">
        <ele>1373.6</ele>
        <time>2015-06-29T06:45:07Z</time>
      </trkpt>
      <trkpt lat="42.34712" lon="8.90883">
        <ele>1372.4</ele>
        <time>2015-06-29T06:45:15Z</time>
      </trkpt>
      <trkpt lat="42.34706" lon="8.9088">
        <ele>1371</ele>
        <time>2015-06-29T06:45:23Z</time>
      </trkpt>
      <trkpt lat="42.34699" lon="8.90879">
        <ele>1370</ele>
        <time>2015-06-29T06:45:32Z</time>
      </trkpt>
      <trkpt lat="42.34693" lon="8.90879">
        <ele>1369</ele>
        <time>2015-06-29T06:45:40Z</time>
      </trkpt>
      <trkpt lat="42.34688" lon="8.90877">
        <ele>1368</ele>
        <time>2015-06-29T06:45:49Z</time>
      </trkpt>
      <trkpt lat="42.34683" lon="8.90876">
        <ele>1367.4</ele>
        <time>2015-06-29T06:45:57Z</time>
      </trkpt>
      <trkpt lat="42.34677" lon="8.90873">
        <ele>1366</ele>
        <time>2015-06-29T06:46:08Z</time>
      </trkpt>
      <trkpt lat="42.34667" lon="8.90866">
        <ele>1364.8</ele>
        <time>2015-06-29T06:46:21Z</time>
      </trkpt>
      <trkpt lat="42.34662" lon="8.90861">
        <ele>1364</ele>
        <time>2015-06-29T06:46:30Z</time>
      </trkpt>
      <trkpt lat="42.34657" lon="8.90856">
        <ele>1363.2</ele>
        <time>2015-06-29T06:46:37Z</time>
      </trkpt>
      <trkpt lat="42.34653" lon="8.90854">
        <ele>1362.2</ele>
        <time>2015-06-29T06:46:43Z</time>
      </trkpt>
      <trkpt lat="42.34649" lon="8.9085">
        <ele>1361.2</ele>
        <time>2015-06-29T06:46:49Z</time>
      </trkpt>
      <trkpt lat="42.34642" lon="8.90845">
        <ele>1360.2</ele>
        <time>2015-06-29T06:46:57Z</time>
      </trkpt>
      <trkpt lat="42.34637" lon="8.9084">
        <ele>1359.2</ele>
        <time>2015-06-29T06:47:04Z</time>
      </trkpt>
      <trkpt lat="42.34632" lon="8.90838">
        <ele>1358</ele>
        <time>2015-06-29T06:47:10Z</time>
      </trkpt>
      <trkpt lat="42.34627" lon="8.90836">
        <ele>1357</ele>
        <time>2015-06-29T06:47:16Z</time>
      </trkpt>
      <trkpt lat="42.34623" lon="8.90835">
        <ele>1356</ele>
        <time>2015-06-29T06:47:22Z</time>
      </trkpt>
      <trkpt lat="42.34617" lon="8.90834">
        <ele>1354.6</ele>
        <time>2015-06-29T06:47:30Z</time>
      </trkpt>
      <trkpt lat="42.34612" lon="8.90833">
        <ele>1353.4</ele>
        <time>2015-06-29T06:47:39Z</time>
      </trkpt>
      <trkpt lat="42.34608" lon="8.90835">
        <ele>1352.4</ele>
        <time>2015-06-29T06:47:47Z</time>
      </trkpt>
      <trkpt lat="42.34603" lon="8.90835">
        <ele>1351.6</ele>
        <time>2015-06-29T06:47:55Z</time>
      </trkpt>
      <trkpt lat="42.34602" lon="8.90834">
        <ele>1350.2</ele>
        <time>2015-06-29T06:48:04Z</time>
      </trkpt>
      <trkpt lat="42.346" lon="8.90836">
        <ele>1349.6</ele>
        <time>2015-06-29T06:48:10Z</time>
      </trkpt>
      <trkpt lat="42.34589" lon="8.90841">
        <ele>1348</ele>
        <time>2015-06-29T06:48:22Z</time>
      </trkpt>
      <trkpt lat="42.34582" lon="8.90844">
        <ele>1347.6</ele>
        <time>2015-06-29T06:48:28Z</time>
      </trkpt>
      <trkpt lat="42.34568" lon="8.90845">
        <ele>1345.8</ele>
        <time>2015-06-29T06:48:43Z</time>
      </trkpt>
      <trkpt lat="42.34557" lon="8.90849">
        <ele>1345</ele>
        <time>2015-06-29T06:49:00Z</time>
      </trkpt>
      <trkpt lat="42.34546" lon="8.90857">
        <ele>1344</ele>
        <time>2015-06-29T06:49:11Z</time>
      </trkpt>
      <trkpt lat="42.3454" lon="8.90861">
        <ele>1343.4</ele>
        <time>2015-06-29T06:49:17Z</time>
      </trkpt>
      <trkpt lat="42.34531" lon="8.9086">
        <ele>1342</ele>
        <time>2015-06-29T06:49:25Z</time>
      </trkpt>
      <trkpt lat="42.34527" lon="8.90856">
        <ele>1341.4</ele>
        <time>2015-06-29T06:49:31Z</time>
      </trkpt>
      <trkpt lat="42.34524" lon="8.90854">
        <ele>1340.4</ele>
        <time>2015-06-29T06:49:35Z</time>
      </trkpt>
      <trkpt lat="42.34523" lon="8.90852">
        <ele>1340</ele>
        <time>2015-06-29T06:49:38Z</time>
      </trkpt>
      <trkpt lat="42.34519" lon="8.90843">
        <ele>1338.6</ele>
        <time>2015-06-29T06:49:47Z</time>
      </trkpt>
      <trkpt lat="42.34517" lon="8.90836">
        <ele>1337.8</ele>
        <time>2015-06-29T06:49:54Z</time>
      </trkpt>
      <trkpt lat="42.34516" lon="8.90828">
        <ele>1336.6</ele>
        <time>2015-06-29T06:50:01Z</time>
      </trkpt>
      <trkpt lat="42.34517" lon="8.90819">
        <ele>1335.4</ele>
        <time>2015-06-29T06:50:08Z</time>
      </trkpt>
      <trkpt lat="42.34522" lon="8.90806">
        <ele>1334</ele>
        <time>2015-06-29T06:50:19Z</time>
      </trkpt>
      <trkpt lat="42.34523" lon="8.90796">
        <ele>1333.4</ele>
        <time>2015-06-29T06:50:27Z</time>
      </trkpt>
      <trkpt lat="42.34521" lon="8.9079">
        <ele>1332.6</ele>
        <time>2015-06-29T06:50:33Z</time>
      </trkpt>
      <trkpt lat="42.3452" lon="8.9078">
        <ele>1331</ele>
        <time>2015-06-29T06:50:42Z</time>
      </trkpt>
      <trkpt lat="42.34521" lon="8.90773">
        <ele>1330</ele>
        <time>2015-06-29T06:50:50Z</time>
      </trkpt>
      <trkpt lat="42.34511" lon="8.90773">
        <ele>1328.6</ele>
        <time>2015-06-29T06:51:04Z</time>
      </trkpt>
      <trkpt lat="42.34504" lon="8.90777">
        <ele>1328</ele>
        <time>2015-06-29T06:51:10Z</time>
      </trkpt>
      <trkpt lat="42.34501" lon="8.90778">
        <ele>1327.2</ele>
        <time>2015-06-29T06:51:15Z</time>
      </trkpt>
      <trkpt lat="42.34498" lon="8.90778">
        <ele>1326.6</ele>
        <time>2015-06-29T06:51:19Z</time>
      </trkpt>
      <trkpt lat="42.34492" lon="8.90778">
        <ele>1325.6</ele>
        <time>2015-06-29T06:51:28Z</time>
      </trkpt>
      <trkpt lat="42.34483" lon="8.9078">
        <ele>1324.2</ele>
        <time>2015-06-29T06:51:40Z</time>
      </trkpt>
      <trkpt lat="42.34475" lon="8.90782">
        <ele>1323.6</ele>
        <time>2015-06-29T06:51:55Z</time>
      </trkpt>
      <trkpt lat="42.3447" lon="8.90781">
        <ele>1322.4</ele>
        <time>2015-06-29T06:52:03Z</time>
      </trkpt>
      <trkpt lat="42.34468" lon="8.90784">
        <ele>1321.8</ele>
        <time>2015-06-29T06:52:09Z</time>
      </trkpt>
      <trkpt lat="42.34465" lon="8.908">
        <ele>1320.2</ele>
        <time>2015-06-29T06:52:27Z</time>
      </trkpt>
      <trkpt lat="42.34464" lon="8.90803">
        <ele>1320.2</ele>
        <time>2015-06-29T06:52:29Z</time>
      </trkpt>
      <trkpt lat="42.34463" lon="8.90811">
        <ele>1319.6</ele>
        <time>2015-06-29T06:52:40Z</time>
      </trkpt>
      <trkpt lat="42.34463" lon="8.90814">
        <ele>1319.6</ele>
        <time>2015-06-29T06:52:47Z</time>
      </trkpt>
      <trkpt lat="42.34461" lon="8.90818">
        <ele>1318.2</ele>
        <time>2015-06-29T06:52:55Z</time>
      </trkpt>
      <trkpt lat="42.34455" lon="8.90823">
        <ele>1317</ele>
        <time>2015-06-29T06:53:04Z</time>
      </trkpt>
      <trkpt lat="42.34452" lon="8.90826">
        <ele>1316.2</ele>
        <time>2015-06-29T06:53:12Z</time>
      </trkpt>
      <trkpt lat="42.3445" lon="8.90833">
        <ele>1315</ele>
        <time>2015-06-29T06:53:20Z</time>
      </trkpt>
      <trkpt lat="42.34445" lon="8.90837">
        <ele>1314</ele>
        <time>2015-06-29T06:53:28Z</time>
      </trkpt>
      <trkpt lat="42.34439" lon="8.90842">
        <ele>1313</ele>
        <time>2015-06-29T06:53:36Z</time>
      </trkpt>
      <trkpt lat="42.34439" lon="8.90843">
        <ele>1312.8</ele>
        <time>2015-06-29T06:53:37Z</time>
      </trkpt>
      <trkpt lat="42.34437" lon="8.90845">
        <ele>1312.6</ele>
        <time>2015-06-29T06:53:39Z</time>
      </trkpt>
      <trkpt lat="42.34432" lon="8.9085">
        <ele>1311.8</ele>
        <time>2015-06-29T06:53:44Z</time>
      </trkpt>
      <trkpt lat="42.34427" lon="8.90855">
        <ele>1311</ele>
        <time>2015-06-29T06:53:51Z</time>
      </trkpt>
      <trkpt lat="42.34425" lon="8.90857">
        <ele>1310.6</ele>
        <time>2015-06-29T06:53:54Z</time>
      </trkpt>
      <trkpt lat="42.34419" lon="8.90857">
        <ele>1309.8</ele>
        <time>2015-06-29T06:54:02Z</time>
      </trkpt>
      <trkpt lat="42.34413" lon="8.90856">
        <ele>1308.6</ele>
        <time>2015-06-29T06:54:11Z</time>
      </trkpt>
      <trkpt lat="42.34409" lon="8.90855">
        <ele>1307.8</ele>
        <time>2015-06-29T06:54:18Z</time>
      </trkpt>
      <trkpt lat="42.34403" lon="8.90847">
        <ele>1306</ele>
        <time>2015-06-29T06:54:28Z</time>
      </trkpt>
      <trkpt lat="42.34398" lon="8.90843">
        <ele>1305.4</ele>
        <time>2015-06-29T06:54:35Z</time>
      </trkpt>
      <trkpt lat="42.34392" lon="8.9084">
        <ele>1304.4</ele>
        <time>2015-06-29T06:54:41Z</time>
      </trkpt>
      <trkpt lat="42.34386" lon="8.9084">
        <ele>1303.2</ele>
        <time>2015-06-29T06:54:48Z</time>
      </trkpt>
      <trkpt lat="42.34383" lon="8.9084">
        <ele>1302.4</ele>
        <time>2015-06-29T06:54:54Z</time>
      </trkpt>
      <trkpt lat="42.34378" lon="8.90842">
        <ele>1301.2</ele>
        <time>2015-06-29T06:55:01Z</time>
      </trkpt>
      <trkpt lat="42.34374" lon="8.90846">
        <ele>1299.8</ele>
        <time>2015-06-29T06:55:09Z</time>
      </trkpt>
      <trkpt lat="42.3437" lon="8.90848">
        <ele>1298.6</ele>
        <time>2015-06-29T06:55:16Z</time>
      </trkpt>
      <trkpt lat="42.34369" lon="8.9085">
        <ele>1298.4</ele>
        <time>2015-06-29T06:55:19Z</time>
      </trkpt>
      <trkpt lat="42.34367" lon="8.90853">
        <ele>1297.2</ele>
        <time>2015-06-29T06:55:23Z</time>
      </trkpt>
      <trkpt lat="42.34364" lon="8.90857">
        <ele>1296.4</ele>
        <time>2015-06-29T06:55:29Z</time>
      </trkpt>
      <trkpt lat="42.34362" lon="8.90861">
        <ele>1295.2</ele>
        <time>2015-06-29T06:55:35Z</time>
      </trkpt>
      <trkpt lat="42.3436" lon="8.90866">
        <ele>1294.2</ele>
        <time>2015-06-29T06:55:41Z</time>
      </trkpt>
      <trkpt lat="42.34357" lon="8.90871">
        <ele>1292.8</ele>
        <time>2015-06-29T06:55:49Z</time>
      </trkpt>
      <trkpt lat="42.34354" lon="8.90876">
        <ele>1291.8</ele>
        <time>2015-06-29T06:55:57Z</time>
      </trkpt>
      <trkpt lat="42.3435" lon="8.90884">
        <ele>1290.4</ele>
        <time>2015-06-29T06:56:08Z</time>
      </trkpt>
      <trkpt lat="42.34347" lon="8.90889">
        <ele>1289.6</ele>
        <time>2015-06-29T06:56:16Z</time>
      </trkpt>
      <trkpt lat="42.34343" lon="8.90893">
        <ele>1288.8</ele>
        <time>2015-06-29T06:56:23Z</time>
      </trkpt>
      <trkpt lat="42.34335" lon="8.9089">
        <ele>1287</ele>
        <time>2015-06-29T06:56:40Z</time>
      </trkpt>
      <trkpt lat="42.34332" lon="8.90889">
        <ele>1286.8</ele>
        <time>2015-06-29T06:56:44Z</time>
      </trkpt>
      <trkpt lat="42.34329" lon="8.90885">
        <ele>1286.4</ele>
        <time>2015-06-29T06:56:49Z</time>
      </trkpt>
      <trkpt lat="42.34322" lon="8.90884">
        <ele>1286</ele>
        <time>2015-06-29T06:56:58Z</time>
      </trkpt>
      <trkpt lat="42.3432" lon="8.90895">
        <ele>1285.2</ele>
        <time>2015-06-29T06:57:12Z</time>
      </trkpt>
      <trkpt lat="42.34316" lon="8.90916">
        <ele>1284</ele>
        <time>2015-06-29T06:57:38Z</time>
      </trkpt>
      <trkpt lat="42.34312" lon="8.90917">
        <ele>1283.2</ele>
        <time>2015-06-29T06:57:46Z</time>
      </trkpt>
      <trkpt lat="42.34302" lon="8.90921">
        <ele>1282</ele>
        <time>2015-06-29T06:57:57Z</time>
      </trkpt>
      <trkpt lat="42.34293" lon="8.90923">
        <ele>1280.8</ele>
        <time>2015-06-29T06:58:06Z</time>
      </trkpt>
      <trkpt lat="42.34284" lon="8.90926">
        <ele>1280.2</ele>
        <time>2015-06-29T06:58:15Z</time>
      </trkpt>
      <trkpt lat="42.34274" lon="8.90932">
        <ele>1278.8</ele>
        <time>2015-06-29T06:58:27Z</time>
      </trkpt>
      <trkpt lat="42.34267" lon="8.9094">
        <ele>1277.6</ele>
        <time>2015-06-29T06:58:38Z</time>
      </trkpt>
      <trkpt lat="42.34259" lon="8.90948">
        <ele>1276.8</ele>
        <time>2015-06-29T06:58:50Z</time>
      </trkpt>
      <trkpt lat="42.34254" lon="8.90955">
        <ele>1275.4</ele>
        <time>2015-06-29T06:59:03Z</time>
      </trkpt>
      <trkpt lat="42.34245" lon="8.90964">
        <ele>1274.4</ele>
        <time>2015-06-29T06:59:17Z</time>
      </trkpt>
      <trkpt lat="42.34225" lon="8.90973">
        <ele>1273.6</ele>
        <time>2015-06-29T06:59:42Z</time>
      </trkpt>
      <trkpt lat="42.34201" lon="8.9099">
        <ele>1272.4</ele>
        <time>2015-06-29T07:00:10Z</time>
      </trkpt>
      <trkpt lat="42.34162" lon="8.91018">
        <ele>1272.4</ele>
        <time>2015-06-29T07:00:59Z</time>
      </trkpt>
      <trkpt lat="42.34152" lon="8.91027">
        <ele>1273.4</ele>
        <time>2015-06-29T07:01:14Z</time>
      </trkpt>
      <trkpt lat="42.34127" lon="8.9103">
        <ele>1273.2</ele>
        <time>2015-06-29T07:01:40Z</time>
      </trkpt>
      <trkpt lat="42.34104" lon="8.91038">
        <ele>1272.2</ele>
        <time>2015-06-29T07:02:07Z</time>
      </trkpt>
      <trkpt lat="42.34097" lon="8.91039">
        <ele>1271.6</ele>
        <time>2015-06-29T07:02:15Z</time>
      </trkpt>
      <trkpt lat="42.34087" lon="8.91041">
        <ele>1270.4</ele>
        <time>2015-06-29T07:02:29Z</time>
      </trkpt>
      <trkpt lat="42.34081" lon="8.91041">
        <ele>1269.6</ele>
        <time>2015-06-29T07:02:36Z</time>
      </trkpt>
      <trkpt lat="42.34074" lon="8.9104">
        <ele>1268.6</ele>
        <time>2015-06-29T07:02:44Z</time>
      </trkpt>
      <trkpt lat="42.34068" lon="8.91039">
        <ele>1267.4</ele>
        <time>2015-06-29T07:02:51Z</time>
      </trkpt>
      <trkpt lat="42.34062" lon="8.91038">
        <ele>1266.4</ele>
        <time>2015-06-29T07:02:59Z</time>
      </trkpt>
      <trkpt lat="42.34054" lon="8.91036">
        <ele>1265.2</ele>
        <time>2015-06-29T07:03:09Z</time>
      </trkpt>
      <trkpt lat="42.3405" lon="8.91036">
        <ele>1264.6</ele>
        <time>2015-06-29T07:03:14Z</time>
      </trkpt>
      <trkpt lat="42.34044" lon="8.91036">
        <ele>1263.2</ele>
        <time>2015-06-29T07:03:22Z</time>
      </trkpt>
      <trkpt lat="42.34038" lon="8.91036">
        <ele>1262.2</ele>
        <time>2015-06-29T07:03:29Z</time>
      </trkpt>
      <trkpt lat="42.34033" lon="8.91037">
        <ele>1261</ele>
        <time>2015-06-29T07:03:35Z</time>
      </trkpt>
      <trkpt lat="42.3402" lon="8.91041">
        <ele>1259.6</ele>
        <time>2015-06-29T07:03:50Z</time>
      </trkpt>
      <trkpt lat="42.34012" lon="8.91042">
        <ele>1258.8</ele>
        <time>2015-06-29T07:04:01Z</time>
      </trkpt>
      <trkpt lat="42.34002" lon="8.91041">
        <ele>1257.8</ele>
        <time>2015-06-29T07:04:12Z</time>
      </trkpt>
      <trkpt lat="42.33994" lon="8.91042">
        <ele>1256.6</ele>
        <time>2015-06-29T07:04:22Z</time>
      </trkpt>
      <trkpt lat="42.33989" lon="8.91046">
        <ele>1256</ele>
        <time>2015-06-29T07:04:30Z</time>
      </trkpt>
      <trkpt lat="42.33987" lon="8.91048">
        <ele>1255.6</ele>
        <time>2015-06-29T07:04:33Z</time>
      </trkpt>
      <trkpt lat="42.33982" lon="8.91051">
        <ele>1254.8</ele>
        <time>2015-06-29T07:04:40Z</time>
      </trkpt>
      <trkpt lat="42.33975" lon="8.9105">
        <ele>1253.4</ele>
        <time>2015-06-29T07:04:49Z</time>
      </trkpt>
      <trkpt lat="42.33969" lon="8.9105">
        <ele>1252.8</ele>
        <time>2015-06-29T07:04:57Z</time>
      </trkpt>
      <trkpt lat="42.33962" lon="8.9105">
        <ele>1251.6</ele>
        <time>2015-06-29T07:05:05Z</time>
      </trkpt>
      <trkpt lat="42.33956" lon="8.91051">
        <ele>1250.6</ele>
        <time>2015-06-29T07:05:14Z</time>
      </trkpt>
      <trkpt lat="42.33947" lon="8.91055">
        <ele>1249.4</ele>
        <time>2015-06-29T07:05:28Z</time>
      </trkpt>
      <trkpt lat="42.33942" lon="8.9106">
        <ele>1248.4</ele>
        <time>2015-06-29T07:05:40Z</time>
      </trkpt>
      <trkpt lat="42.33936" lon="8.91063">
        <ele>1247.8</ele>
        <time>2015-06-29T07:05:52Z</time>
      </trkpt>
      <trkpt lat="42.33928" lon="8.91071">
        <ele>1246.6</ele>
        <time>2015-06-29T07:06:05Z</time>
      </trkpt>
      <trkpt lat="42.33923" lon="8.91076">
        <ele>1245.6</ele>
        <time>2015-06-29T07:06:15Z</time>
      </trkpt>
      <trkpt lat="42.33914" lon="8.91082">
        <ele>1244.6</ele>
        <time>2015-06-29T07:06:25Z</time>
      </trkpt>
      <trkpt lat="42.33907" lon="8.9109">
        <ele>1243.8</ele>
        <time>2015-06-29T07:06:37Z</time>
      </trkpt>
      <trkpt lat="42.33903" lon="8.91096">
        <ele>1243</ele>
        <time>2015-06-29T07:06:46Z</time>
      </trkpt>
      <trkpt lat="42.33895" lon="8.91106">
        <ele>1241.6</ele>
        <time>2015-06-29T07:07:02Z</time>
      </trkpt>
      <trkpt lat="42.33891" lon="8.91114">
        <ele>1240.8</ele>
        <time>2015-06-29T07:07:13Z</time>
      </trkpt>
      <trkpt lat="42.33886" lon="8.91116">
        <ele>1240.2</ele>
        <time>2015-06-29T07:07:21Z</time>
      </trkpt>
      <trkpt lat="42.33881" lon="8.91119">
        <ele>1238.8</ele>
        <time>2015-06-29T07:07:32Z</time>
      </trkpt>
      <trkpt lat="42.33876" lon="8.91122">
        <ele>1238.2</ele>
        <time>2015-06-29T07:07:43Z</time>
      </trkpt>
      <trkpt lat="42.33871" lon="8.91122">
        <ele>1236.8</ele>
        <time>2015-06-29T07:07:56Z</time>
      </trkpt>
      <trkpt lat="42.33864" lon="8.91126">
        <ele>1236</ele>
        <time>2015-06-29T07:08:08Z</time>
      </trkpt>
      <trkpt lat="42.33856" lon="8.91127">
        <ele>1234.8</ele>
        <time>2015-06-29T07:08:20Z</time>
      </trkpt>
      <trkpt lat="42.33852" lon="8.91129">
        <ele>1234</ele>
        <time>2015-06-29T07:08:28Z</time>
      </trkpt>
      <trkpt lat="42.33847" lon="8.9113">
        <ele>1232.8</ele>
        <time>2015-06-29T07:08:38Z</time>
      </trkpt>
      <trkpt lat="42.3384" lon="8.91133">
        <ele>1231.8</ele>
        <time>2015-06-29T07:08:46Z</time>
      </trkpt>
      <trkpt lat="42.33831" lon="8.91137">
        <ele>1230.8</ele>
        <time>2015-06-29T07:08:56Z</time>
      </trkpt>
      <trkpt lat="42.33828" lon="8.9114">
        <ele>1230</ele>
        <time>2015-06-29T07:09:03Z</time>
      </trkpt>
      <trkpt lat="42.33827" lon="8.9114">
        <ele>1229.6</ele>
        <time>2015-06-29T07:09:07Z</time>
      </trkpt>
      <trkpt lat="42.33822" lon="8.91145">
        <ele>1228</ele>
        <time>2015-06-29T07:09:14Z</time>
      </trkpt>
      <trkpt lat="42.33816" lon="8.91151">
        <ele>1226.8</ele>
        <time>2015-06-29T07:09:21Z</time>
      </trkpt>
      <trkpt lat="42.33805" lon="8.91156">
        <ele>1225.6</ele>
        <time>2015-06-29T07:09:36Z</time>
      </trkpt>
      <trkpt lat="42.33778" lon="8.91176">
        <ele>1224.4</ele>
        <time>2015-06-29T07:10:07Z</time>
      </trkpt>
      <trkpt lat="42.33761" lon="8.91196">
        <ele>1223.4</ele>
        <time>2015-06-29T07:10:30Z</time>
      </trkpt>
      <trkpt lat="42.3375" lon="8.91211">
        <ele>1222.6</ele>
        <time>2015-06-29T07:10:46Z</time>
      </trkpt>
      <trkpt lat="42.33737" lon="8.91222">
        <ele>1221.8</ele>
        <time>2015-06-29T07:11:00Z</time>
      </trkpt>
      <trkpt lat="42.3372" lon="8.91231">
        <ele>1220.8</ele>
        <time>2015-06-29T07:11:17Z</time>
      </trkpt>
      <trkpt lat="42.33708" lon="8.91236">
        <ele>1219.8</ele>
        <time>2015-06-29T07:11:30Z</time>
      </trkpt>
      <trkpt lat="42.33691" lon="8.91243">
        <ele>1219</ele>
        <time>2015-06-29T07:11:47Z</time>
      </trkpt>
      <trkpt lat="42.3368" lon="8.91249">
        <ele>1218.2</ele>
        <time>2015-06-29T07:12:02Z</time>
      </trkpt>
      <trkpt lat="42.3367" lon="8.91258">
        <ele>1217.4</ele>
        <time>2015-06-29T07:12:19Z</time>
      </trkpt>
      <trkpt lat="42.33663" lon="8.9126">
        <ele>1217.4</ele>
        <time>2015-06-29T07:12:28Z</time>
      </trkpt>
      <trkpt lat="42.33666" lon="8.91258">
        <ele>1217.4</ele>
        <time>2015-06-29T07:12:59Z</time>
      </trkpt>
      <trkpt lat="42.33666" lon="8.91258">
        <ele>1217.4</ele>
        <time>2015-06-29T07:13:12Z</time>
      </trkpt>
      <trkpt lat="42.33657" lon="8.91269">
        <ele>1216.8</ele>
        <time>2015-06-29T07:13:30Z</time>
      </trkpt>
      <trkpt lat="42.3365" lon="8.91282">
        <ele>1216</ele>
        <time>2015-06-29T07:13:42Z</time>
      </trkpt>
      <trkpt lat="42.33642" lon="8.91297">
        <ele>1215</ele>
        <time>2015-06-29T07:13:56Z</time>
      </trkpt>
      <trkpt lat="42.33634" lon="8.91313">
        <ele>1214.2</ele>
        <time>2015-06-29T07:14:10Z</time>
      </trkpt>
      <trkpt lat="42.33626" lon="8.91333">
        <ele>1213</ele>
        <time>2015-06-29T07:14:26Z</time>
      </trkpt>
      <trkpt lat="42.33616" lon="8.91354">
        <ele>1212.4</ele>
        <time>2015-06-29T07:14:44Z</time>
      </trkpt>
      <trkpt lat="42.33608" lon="8.9137">
        <ele>1211.4</ele>
        <time>2015-06-29T07:14:57Z</time>
      </trkpt>
      <trkpt lat="42.33599" lon="8.91385">
        <ele>1210.6</ele>
        <time>2015-06-29T07:15:10Z</time>
      </trkpt>
      <trkpt lat="42.33587" lon="8.91401">
        <ele>1209.6</ele>
        <time>2015-06-29T07:15:27Z</time>
      </trkpt>
      <trkpt lat="42.33576" lon="8.91418">
        <ele>1208.8</ele>
        <time>2015-06-29T07:15:43Z</time>
      </trkpt>
      <trkpt lat="42.33563" lon="8.91433">
        <ele>1208</ele>
        <time>2015-06-29T07:15:59Z</time>
      </trkpt>
      <trkpt lat="42.33561" lon="8.91436">
        <ele>1207.6</ele>
        <time>2015-06-29T07:16:02Z</time>
      </trkpt>
      <trkpt lat="42.33555" lon="8.91441">
        <ele>1207.2</ele>
        <time>2015-06-29T07:16:08Z</time>
      </trkpt>
      <trkpt lat="42.33547" lon="8.91448">
        <ele>1206.2</ele>
        <time>2015-06-29T07:16:18Z</time>
      </trkpt>
      <trkpt lat="42.33534" lon="8.91459">
        <ele>1205</ele>
        <time>2015-06-29T07:16:31Z</time>
      </trkpt>
      <trkpt lat="42.33517" lon="8.91467">
        <ele>1204.2</ele>
        <time>2015-06-29T07:16:46Z</time>
      </trkpt>
      <trkpt lat="42.33504" lon="8.91473">
        <ele>1203.2</ele>
        <time>2015-06-29T07:17:00Z</time>
      </trkpt>
      <trkpt lat="42.33485" lon="8.91475">
        <ele>1202.4</ele>
        <time>2015-06-29T07:17:16Z</time>
      </trkpt>
      <trkpt lat="42.33472" lon="8.91477">
        <ele>1201.6</ele>
        <time>2015-06-29T07:17:28Z</time>
      </trkpt>
      <trkpt lat="42.33455" lon="8.91481">
        <ele>1200.6</ele>
        <time>2015-06-29T07:17:43Z</time>
      </trkpt>
      <trkpt lat="42.33445" lon="8.91484">
        <ele>1200</ele>
        <time>2015-06-29T07:17:53Z</time>
      </trkpt>
      <trkpt lat="42.33427" lon="8.91485">
        <ele>1198.8</ele>
        <time>2015-06-29T07:18:10Z</time>
      </trkpt>
      <trkpt lat="42.33414" lon="8.91498">
        <ele>1197.8</ele>
        <time>2015-06-29T07:18:25Z</time>
      </trkpt>
      <trkpt lat="42.33406" lon="8.91522">
        <ele>1196.8</ele>
        <time>2015-06-29T07:18:43Z</time>
      </trkpt>
      <trkpt lat="42.33403" lon="8.91533">
        <ele>1196.4</ele>
        <time>2015-06-29T07:18:52Z</time>
      </trkpt>
      <trkpt lat="42.33398" lon="8.91546">
        <ele>1195</ele>
        <time>2015-06-29T07:19:04Z</time>
      </trkpt>
      <trkpt lat="42.33393" lon="8.91563">
        <ele>1194.2</ele>
        <time>2015-06-29T07:19:18Z</time>
      </trkpt>
      <trkpt lat="42.3339" lon="8.91576">
        <ele>1193</ele>
        <time>2015-06-29T07:19:28Z</time>
      </trkpt>
      <trkpt lat="42.3339" lon="8.9159">
        <ele>1192.2</ele>
        <time>2015-06-29T07:19:38Z</time>
      </trkpt>
      <trkpt lat="42.33395" lon="8.91611">
        <ele>1191</ele>
        <time>2015-06-29T07:19:54Z</time>
      </trkpt>
      <trkpt lat="42.33396" lon="8.91623">
        <ele>1190.4</ele>
        <time>2015-06-29T07:20:04Z</time>
      </trkpt>
      <trkpt lat="42.33401" lon="8.91643">
        <ele>1189.6</ele>
        <time>2015-06-29T07:20:16Z</time>
      </trkpt>
      <trkpt lat="42.33407" lon="8.91661">
        <ele>1188.6</ele>
        <time>2015-06-29T07:20:29Z</time>
      </trkpt>
      <trkpt lat="42.33415" lon="8.91681">
        <ele>1187.6</ele>
        <time>2015-06-29T07:20:44Z</time>
      </trkpt>
      <trkpt lat="42.33421" lon="8.91694">
        <ele>1186.4</ele>
        <time>2015-06-29T07:20:56Z</time>
      </trkpt>
      <trkpt lat="42.33428" lon="8.91703">
        <ele>1185.6</ele>
        <time>2015-06-29T07:21:06Z</time>
      </trkpt>
      <trkpt lat="42.3344" lon="8.91715">
        <ele>1184.8</ele>
        <time>2015-06-29T07:21:19Z</time>
      </trkpt>
      <trkpt lat="42.33447" lon="8.91726">
        <ele>1183.6</ele>
        <time>2015-06-29T07:21:31Z</time>
      </trkpt>
      <trkpt lat="42.33459" lon="8.91738">
        <ele>1182.6</ele>
        <time>2015-06-29T07:21:43Z</time>
      </trkpt>
      <trkpt lat="42.33463" lon="8.91755">
        <ele>1181.8</ele>
        <time>2015-06-29T07:21:55Z</time>
      </trkpt>
      <trkpt lat="42.33463" lon="8.91776">
        <ele>1180.8</ele>
        <time>2015-06-29T07:22:07Z</time>
      </trkpt>
      <trkpt lat="42.33462" lon="8.91801">
        <ele>1179.4</ele>
        <time>2015-06-29T07:22:22Z</time>
      </trkpt>
      <trkpt lat="42.33457" lon="8.91816">
        <ele>1178.4</ele>
        <time>2015-06-29T07:22:34Z</time>
      </trkpt>
      <trkpt lat="42.33452" lon="8.9183">
        <ele>1177.6</ele>
        <time>2015-06-29T07:22:45Z</time>
      </trkpt>
      <trkpt lat="42.33444" lon="8.91846">
        <ele>1176.4</ele>
        <time>2015-06-29T07:22:58Z</time>
      </trkpt>
      <trkpt lat="42.33437" lon="8.91865">
        <ele>1175.4</ele>
        <time>2015-06-29T07:23:12Z</time>
      </trkpt>
      <trkpt lat="42.33439" lon="8.91887">
        <ele>1174.6</ele>
        <time>2015-06-29T07:23:27Z</time>
      </trkpt>
      <trkpt lat="42.33439" lon="8.919">
        <ele>1174.4</ele>
        <time>2015-06-29T07:23:35Z</time>
      </trkpt>
      <trkpt lat="42.33437" lon="8.91915">
        <ele>1174.2</ele>
        <time>2015-06-29T07:23:45Z</time>
      </trkpt>
      <trkpt lat="42.33435" lon="8.9192">
        <ele>1174.2</ele>
        <time>2015-06-29T07:23:49Z</time>
      </trkpt>
      <trkpt lat="42.33431" lon="8.91939">
        <ele>1173.6</ele>
        <time>2015-06-29T07:24:01Z</time>
      </trkpt>
      <trkpt lat="42.33429" lon="8.91944">
        <ele>1173.2</ele>
        <time>2015-06-29T07:24:05Z</time>
      </trkpt>
      <trkpt lat="42.33428" lon="8.91949">
        <ele>1173</ele>
        <time>2015-06-29T07:24:09Z</time>
      </trkpt>
      <trkpt lat="42.33426" lon="8.91962">
        <ele>1171.8</ele>
        <time>2015-06-29T07:24:19Z</time>
      </trkpt>
      <trkpt lat="42.33422" lon="8.91974">
        <ele>1170.8</ele>
        <time>2015-06-29T07:24:28Z</time>
      </trkpt>
      <trkpt lat="42.33416" lon="8.91984">
        <ele>1169.8</ele>
        <time>2015-06-29T07:24:36Z</time>
      </trkpt>
      <trkpt lat="42.33415" lon="8.91987">
        <ele>1169.8</ele>
        <time>2015-06-29T07:24:38Z</time>
      </trkpt>
      <trkpt lat="42.33415" lon="8.91988">
        <ele>1169.6</ele>
        <time>2015-06-29T07:24:39Z</time>
      </trkpt>
      <trkpt lat="42.3341" lon="8.91993">
        <ele>1169.2</ele>
        <time>2015-06-29T07:24:45Z</time>
      </trkpt>
      <trkpt lat="42.33405" lon="8.92001">
        <ele>1168.6</ele>
        <time>2015-06-29T07:24:52Z</time>
      </trkpt>
      <trkpt lat="42.33405" lon="8.92002">
        <ele>1168.6</ele>
        <time>2015-06-29T07:24:53Z</time>
      </trkpt>
      <trkpt lat="42.33397" lon="8.92018">
        <ele>1167.8</ele>
        <time>2015-06-29T07:25:05Z</time>
      </trkpt>
      <trkpt lat="42.33391" lon="8.9203">
        <ele>1167.2</ele>
        <time>2015-06-29T07:25:14Z</time>
      </trkpt>
      <trkpt lat="42.33385" lon="8.92043">
        <ele>1166</ele>
        <time>2015-06-29T07:25:24Z</time>
      </trkpt>
      <trkpt lat="42.3338" lon="8.92059">
        <ele>1165.2</ele>
        <time>2015-06-29T07:25:35Z</time>
      </trkpt>
      <trkpt lat="42.3338" lon="8.9206">
        <ele>1165</ele>
        <time>2015-06-29T07:25:36Z</time>
      </trkpt>
      <trkpt lat="42.33379" lon="8.92066">
        <ele>1164.6</ele>
        <time>2015-06-29T07:25:41Z</time>
      </trkpt>
      <trkpt lat="42.33374" lon="8.92084">
        <ele>1163</ele>
        <time>2015-06-29T07:25:54Z</time>
      </trkpt>
      <trkpt lat="42.33371" lon="8.921">
        <ele>1162.2</ele>
        <time>2015-06-29T07:26:04Z</time>
      </trkpt>
      <trkpt lat="42.33372" lon="8.92108">
        <ele>1161.8</ele>
        <time>2015-06-29T07:26:09Z</time>
      </trkpt>
      <trkpt lat="42.33372" lon="8.92117">
        <ele>1161.4</ele>
        <time>2015-06-29T07:26:14Z</time>
      </trkpt>
      <trkpt lat="42.33373" lon="8.92134">
        <ele>1160.2</ele>
        <time>2015-06-29T07:26:25Z</time>
      </trkpt>
      <trkpt lat="42.33373" lon="8.9214">
        <ele>1160</ele>
        <time>2015-06-29T07:26:28Z</time>
      </trkpt>
      <trkpt lat="42.33373" lon="8.92144">
        <ele>1159.8</ele>
        <time>2015-06-29T07:26:31Z</time>
      </trkpt>
      <trkpt lat="42.33374" lon="8.9215">
        <ele>1159.4</ele>
        <time>2015-06-29T07:26:35Z</time>
      </trkpt>
      <trkpt lat="42.33375" lon="8.92162">
        <ele>1158.6</ele>
        <time>2015-06-29T07:26:43Z</time>
      </trkpt>
      <trkpt lat="42.33377" lon="8.92182">
        <ele>1157.6</ele>
        <time>2015-06-29T07:26:55Z</time>
      </trkpt>
      <trkpt lat="42.33379" lon="8.92191">
        <ele>1157.2</ele>
        <time>2015-06-29T07:27:01Z</time>
      </trkpt>
      <trkpt lat="42.33379" lon="8.92192">
        <ele>1157</ele>
        <time>2015-06-29T07:27:02Z</time>
      </trkpt>
      <trkpt lat="42.33382" lon="8.92201">
        <ele>1156.6</ele>
        <time>2015-06-29T07:27:10Z</time>
      </trkpt>
      <trkpt lat="42.33382" lon="8.92203">
        <ele>1156.6</ele>
        <time>2015-06-29T07:27:11Z</time>
      </trkpt>
      <trkpt lat="42.33383" lon="8.9221">
        <ele>1156</ele>
        <time>2015-06-29T07:27:16Z</time>
      </trkpt>
      <trkpt lat="42.33384" lon="8.92219">
        <ele>1155.4</ele>
        <time>2015-06-29T07:27:21Z</time>
      </trkpt>
      <trkpt lat="42.33384" lon="8.92235">
        <ele>1154.6</ele>
        <time>2015-06-29T07:27:32Z</time>
      </trkpt>
      <trkpt lat="42.33384" lon="8.92237">
        <ele>1154.4</ele>
        <time>2015-06-29T07:27:33Z</time>
      </trkpt>
      <trkpt lat="42.33384" lon="8.9224">
        <ele>1154.4</ele>
        <time>2015-06-29T07:27:35Z</time>
      </trkpt>
      <trkpt lat="42.33384" lon="8.92255">
        <ele>1153.4</ele>
        <time>2015-06-29T07:27:45Z</time>
      </trkpt>
      <trkpt lat="42.33384" lon="8.92258">
        <ele>1153.4</ele>
        <time>2015-06-29T07:27:47Z</time>
      </trkpt>
      <trkpt lat="42.33384" lon="8.92264">
        <ele>1153.2</ele>
        <time>2015-06-29T07:27:51Z</time>
      </trkpt>
      <trkpt lat="42.33383" lon="8.92271">
        <ele>1152.8</ele>
        <time>2015-06-29T07:27:56Z</time>
      </trkpt>
      <trkpt lat="42.33381" lon="8.92288">
        <ele>1151.8</ele>
        <time>2015-06-29T07:28:08Z</time>
      </trkpt>
      <trkpt lat="42.33381" lon="8.9229">
        <ele>1151.6</ele>
        <time>2015-06-29T07:28:09Z</time>
      </trkpt>
      <trkpt lat="42.3338" lon="8.92301">
        <ele>1151</ele>
        <time>2015-06-29T07:28:15Z</time>
      </trkpt>
      <trkpt lat="42.33381" lon="8.92306">
        <ele>1150.8</ele>
        <time>2015-06-29T07:28:19Z</time>
      </trkpt>
      <trkpt lat="42.33383" lon="8.92319">
        <ele>1150</ele>
        <time>2015-06-29T07:28:28Z</time>
      </trkpt>
      <trkpt lat="42.33384" lon="8.9232">
        <ele>1149.8</ele>
        <time>2015-06-29T07:28:29Z</time>
      </trkpt>
      <trkpt lat="42.33385" lon="8.92331">
        <ele>1148.8</ele>
        <time>2015-06-29T07:28:37Z</time>
      </trkpt>
      <trkpt lat="42.33387" lon="8.92344">
        <ele>1148.2</ele>
        <time>2015-06-29T07:28:45Z</time>
      </trkpt>
      <trkpt lat="42.33387" lon="8.92355">
        <ele>1147</ele>
        <time>2015-06-29T07:28:53Z</time>
      </trkpt>
      <trkpt lat="42.33386" lon="8.92374">
        <ele>1145.8</ele>
        <time>2015-06-29T07:29:06Z</time>
      </trkpt>
      <trkpt lat="42.33387" lon="8.92391">
        <ele>1145</ele>
        <time>2015-06-29T07:29:17Z</time>
      </trkpt>
      <trkpt lat="42.33395" lon="8.92403">
        <ele>1144.4</ele>
        <time>2015-06-29T07:29:28Z</time>
      </trkpt>
      <trkpt lat="42.33408" lon="8.9241">
        <ele>1143.2</ele>
        <time>2015-06-29T07:29:40Z</time>
      </trkpt>
      <trkpt lat="42.33412" lon="8.92414">
        <ele>1143</ele>
        <time>2015-06-29T07:29:45Z</time>
      </trkpt>
      <trkpt lat="42.33416" lon="8.92429">
        <ele>1142.4</ele>
        <time>2015-06-29T07:29:56Z</time>
      </trkpt>
      <trkpt lat="42.33414" lon="8.92442">
        <ele>1141.8</ele>
        <time>2015-06-29T07:30:07Z</time>
      </trkpt>
      <trkpt lat="42.33403" lon="8.92452">
        <ele>1140.8</ele>
        <time>2015-06-29T07:30:20Z</time>
      </trkpt>
      <trkpt lat="42.33394" lon="8.92462">
        <ele>1140</ele>
        <time>2015-06-29T07:30:30Z</time>
      </trkpt>
      <trkpt lat="42.33387" lon="8.92471">
        <ele>1139.2</ele>
        <time>2015-06-29T07:30:39Z</time>
      </trkpt>
      <trkpt lat="42.33386" lon="8.92472">
        <ele>1139</ele>
        <time>2015-06-29T07:30:40Z</time>
      </trkpt>
      <trkpt lat="42.33381" lon="8.92482">
        <ele>1138.2</ele>
        <time>2015-06-29T07:30:48Z</time>
      </trkpt>
      <trkpt lat="42.33375" lon="8.92495">
        <ele>1137.2</ele>
        <time>2015-06-29T07:30:58Z</time>
      </trkpt>
      <trkpt lat="42.33374" lon="8.92497">
        <ele>1137</ele>
        <time>2015-06-29T07:31:00Z</time>
      </trkpt>
      <trkpt lat="42.33371" lon="8.92505">
        <ele>1136.2</ele>
        <time>2015-06-29T07:31:07Z</time>
      </trkpt>
      <trkpt lat="42.3337" lon="8.92506">
        <ele>1136</ele>
        <time>2015-06-29T07:31:08Z</time>
      </trkpt>
      <trkpt lat="42.33369" lon="8.92513">
        <ele>1135.6</ele>
        <time>2015-06-29T07:31:13Z</time>
      </trkpt>
      <trkpt lat="42.33368" lon="8.92526">
        <ele>1135.2</ele>
        <time>2015-06-29T07:31:21Z</time>
      </trkpt>
      <trkpt lat="42.33367" lon="8.92529">
        <ele>1135.2</ele>
        <time>2015-06-29T07:31:23Z</time>
      </trkpt>
      <trkpt lat="42.33367" lon="8.92535">
        <ele>1134.8</ele>
        <time>2015-06-29T07:31:27Z</time>
      </trkpt>
      <trkpt lat="42.33369" lon="8.92542">
        <ele>1134.4</ele>
        <time>2015-06-29T07:31:31Z</time>
      </trkpt>
      <trkpt lat="42.3337" lon="8.92552">
        <ele>1134</ele>
        <time>2015-06-29T07:31:37Z</time>
      </trkpt>
      <trkpt lat="42.33373" lon="8.92558">
        <ele>1133.2</ele>
        <time>2015-06-29T07:31:42Z</time>
      </trkpt>
      <trkpt lat="42.33374" lon="8.9256">
        <ele>1133</ele>
        <time>2015-06-29T07:31:44Z</time>
      </trkpt>
      <trkpt lat="42.33378" lon="8.92569">
        <ele>1131.8</ele>
        <time>2015-06-29T07:31:52Z</time>
      </trkpt>
      <trkpt lat="42.33379" lon="8.92576">
        <ele>1131.2</ele>
        <time>2015-06-29T07:31:58Z</time>
      </trkpt>
      <trkpt lat="42.33379" lon="8.92583">
        <ele>1129.8</ele>
        <time>2015-06-29T07:32:05Z</time>
      </trkpt>
      <trkpt lat="42.33377" lon="8.92591">
        <ele>1128.8</ele>
        <time>2015-06-29T07:32:13Z</time>
      </trkpt>
      <trkpt lat="42.33374" lon="8.92601">
        <ele>1128</ele>
        <time>2015-06-29T07:32:21Z</time>
      </trkpt>
      <trkpt lat="42.3337" lon="8.92616">
        <ele>1126.8</ele>
        <time>2015-06-29T07:32:33Z</time>
      </trkpt>
      <trkpt lat="42.3336" lon="8.92631">
        <ele>1125.6</ele>
        <time>2015-06-29T07:32:48Z</time>
      </trkpt>
      <trkpt lat="42.33358" lon="8.92635">
        <ele>1125.4</ele>
        <time>2015-06-29T07:32:52Z</time>
      </trkpt>
      <trkpt lat="42.33335" lon="8.92656">
        <ele>1124.8</ele>
        <time>2015-06-29T07:33:11Z</time>
      </trkpt>
      <trkpt lat="42.33331" lon="8.92663">
        <ele>1124.4</ele>
        <time>2015-06-29T07:33:17Z</time>
      </trkpt>
      <trkpt lat="42.33325" lon="8.92674">
        <ele>1124.2</ele>
        <time>2015-06-29T07:33:26Z</time>
      </trkpt>
      <trkpt lat="42.33317" lon="8.92692">
        <ele>1123.2</ele>
        <time>2015-06-29T07:33:39Z</time>
      </trkpt>
      <trkpt lat="42.33311" lon="8.92709">
        <ele>1122.2</ele>
        <time>2015-06-29T07:33:52Z</time>
      </trkpt>
      <trkpt lat="42.33307" lon="8.92736">
        <ele>1121.2</ele>
        <time>2015-06-29T07:34:07Z</time>
      </trkpt>
      <trkpt lat="42.33308" lon="8.92738">
        <ele>1121.2</ele>
        <time>2015-06-29T07:34:08Z</time>
      </trkpt>
      <trkpt lat="42.33308" lon="8.92745">
        <ele>1121</ele>
        <time>2015-06-29T07:34:12Z</time>
      </trkpt>
      <trkpt lat="42.33307" lon="8.92751">
        <ele>1120.6</ele>
        <time>2015-06-29T07:34:15Z</time>
      </trkpt>
      <trkpt lat="42.33308" lon="8.92752">
        <ele>1120.6</ele>
        <time>2015-06-29T07:34:16Z</time>
      </trkpt>
      <trkpt lat="42.33312" lon="8.92766">
        <ele>1119.8</ele>
        <time>2015-06-29T07:34:24Z</time>
      </trkpt>
      <trkpt lat="42.33314" lon="8.92768">
        <ele>1119.6</ele>
        <time>2015-06-29T07:34:26Z</time>
      </trkpt>
      <trkpt lat="42.33315" lon="8.92771">
        <ele>1119.2</ele>
        <time>2015-06-29T07:34:28Z</time>
      </trkpt>
      <trkpt lat="42.33318" lon="8.92776">
        <ele>1119</ele>
        <time>2015-06-29T07:34:32Z</time>
      </trkpt>
      <trkpt lat="42.33316" lon="8.92785">
        <ele>1118.4</ele>
        <time>2015-06-29T07:34:39Z</time>
      </trkpt>
      <trkpt lat="42.33304" lon="8.92793">
        <ele>1117.6</ele>
        <time>2015-06-29T07:34:50Z</time>
      </trkpt>
      <trkpt lat="42.33297" lon="8.92799">
        <ele>1116.8</ele>
        <time>2015-06-29T07:34:58Z</time>
      </trkpt>
      <trkpt lat="42.33286" lon="8.92813">
        <ele>1115.6</ele>
        <time>2015-06-29T07:35:10Z</time>
      </trkpt>
      <trkpt lat="42.33281" lon="8.92826">
        <ele>1114.8</ele>
        <time>2015-06-29T07:35:19Z</time>
      </trkpt>
      <trkpt lat="42.33278" lon="8.92837">
        <ele>1114</ele>
        <time>2015-06-29T07:35:26Z</time>
      </trkpt>
      <trkpt lat="42.33276" lon="8.92847">
        <ele>1113.2</ele>
        <time>2015-06-29T07:35:32Z</time>
      </trkpt>
      <trkpt lat="42.33276" lon="8.9285">
        <ele>1113</ele>
        <time>2015-06-29T07:35:34Z</time>
      </trkpt>
      <trkpt lat="42.33275" lon="8.92868">
        <ele>1112</ele>
        <time>2015-06-29T07:35:44Z</time>
      </trkpt>
      <trkpt lat="42.33275" lon="8.92869">
        <ele>1111.8</ele>
        <time>2015-06-29T07:35:45Z</time>
      </trkpt>
      <trkpt lat="42.33268" lon="8.92876">
        <ele>1111.2</ele>
        <time>2015-06-29T07:35:53Z</time>
      </trkpt>
      <trkpt lat="42.33261" lon="8.92883">
        <ele>1110.2</ele>
        <time>2015-06-29T07:36:02Z</time>
      </trkpt>
      <trkpt lat="42.33251" lon="8.92897">
        <ele>1109.4</ele>
        <time>2015-06-29T07:36:13Z</time>
      </trkpt>
      <trkpt lat="42.33248" lon="8.92901">
        <ele>1109.2</ele>
        <time>2015-06-29T07:36:16Z</time>
      </trkpt>
      <trkpt lat="42.33242" lon="8.9291">
        <ele>1108.4</ele>
        <time>2015-06-29T07:36:25Z</time>
      </trkpt>
      <trkpt lat="42.33241" lon="8.92912">
        <ele>1108.2</ele>
        <time>2015-06-29T07:36:26Z</time>
      </trkpt>
      <trkpt lat="42.33238" lon="8.92918">
        <ele>1107.6</ele>
        <time>2015-06-29T07:36:32Z</time>
      </trkpt>
      <trkpt lat="42.33235" lon="8.92923">
        <ele>1107</ele>
        <time>2015-06-29T07:36:36Z</time>
      </trkpt>
      <trkpt lat="42.33231" lon="8.92929">
        <ele>1106.6</ele>
        <time>2015-06-29T07:36:41Z</time>
      </trkpt>
      <trkpt lat="42.33225" lon="8.92937">
        <ele>1105.8</ele>
        <time>2015-06-29T07:36:49Z</time>
      </trkpt>
      <trkpt lat="42.33224" lon="8.92938">
        <ele>1105.6</ele>
        <time>2015-06-29T07:36:50Z</time>
      </trkpt>
      <trkpt lat="42.3322" lon="8.92943">
        <ele>1105.2</ele>
        <time>2015-06-29T07:36:55Z</time>
      </trkpt>
      <trkpt lat="42.33217" lon="8.92944">
        <ele>1104.8</ele>
        <time>2015-06-29T07:36:57Z</time>
      </trkpt>
      <trkpt lat="42.33217" lon="8.92945">
        <ele>1104.8</ele>
        <time>2015-06-29T07:36:58Z</time>
      </trkpt>
      <trkpt lat="42.33216" lon="8.92946">
        <ele>1104.6</ele>
        <time>2015-06-29T07:36:59Z</time>
      </trkpt>
      <trkpt lat="42.33215" lon="8.92947">
        <ele>1104.2</ele>
        <time>2015-06-29T07:37:01Z</time>
      </trkpt>
      <trkpt lat="42.3321" lon="8.92952">
        <ele>1103.8</ele>
        <time>2015-06-29T07:37:06Z</time>
      </trkpt>
      <trkpt lat="42.33204" lon="8.92962">
        <ele>1103</ele>
        <time>2015-06-29T07:37:14Z</time>
      </trkpt>
      <trkpt lat="42.33196" lon="8.92973">
        <ele>1101.6</ele>
        <time>2015-06-29T07:37:24Z</time>
      </trkpt>
      <trkpt lat="42.33186" lon="8.92987">
        <ele>1100.6</ele>
        <time>2015-06-29T07:37:36Z</time>
      </trkpt>
      <trkpt lat="42.33178" lon="8.93004">
        <ele>1100</ele>
        <time>2015-06-29T07:37:46Z</time>
      </trkpt>
      <trkpt lat="42.33175" lon="8.93012">
        <ele>1100</ele>
        <time>2015-06-29T07:37:50Z</time>
      </trkpt>
      <trkpt lat="42.3317" lon="8.93024">
        <ele>1099.2</ele>
        <time>2015-06-29T07:37:57Z</time>
      </trkpt>
      <trkpt lat="42.33165" lon="8.93037">
        <ele>1098.4</ele>
        <time>2015-06-29T07:38:06Z</time>
      </trkpt>
      <trkpt lat="42.33159" lon="8.93048">
        <ele>1097.8</ele>
        <time>2015-06-29T07:38:15Z</time>
      </trkpt>
      <trkpt lat="42.33153" lon="8.93058">
        <ele>1096.8</ele>
        <time>2015-06-29T07:38:23Z</time>
      </trkpt>
      <trkpt lat="42.33153" lon="8.93059">
        <ele>1096.8</ele>
        <time>2015-06-29T07:38:24Z</time>
      </trkpt>
      <trkpt lat="42.33149" lon="8.93066">
        <ele>1096</ele>
        <time>2015-06-29T07:38:30Z</time>
      </trkpt>
      <trkpt lat="42.33145" lon="8.9307">
        <ele>1095.6</ele>
        <time>2015-06-29T07:38:34Z</time>
      </trkpt>
      <trkpt lat="42.33144" lon="8.9307">
        <ele>1095.6</ele>
        <time>2015-06-29T07:38:35Z</time>
      </trkpt>
      <trkpt lat="42.3314" lon="8.93079">
        <ele>1095</ele>
        <time>2015-06-29T07:38:42Z</time>
      </trkpt>
      <trkpt lat="42.33131" lon="8.9309">
        <ele>1094</ele>
        <time>2015-06-29T07:38:52Z</time>
      </trkpt>
      <trkpt lat="42.33125" lon="8.931">
        <ele>1093</ele>
        <time>2015-06-29T07:39:01Z</time>
      </trkpt>
      <trkpt lat="42.33118" lon="8.93111">
        <ele>1092</ele>
        <time>2015-06-29T07:39:10Z</time>
      </trkpt>
      <trkpt lat="42.3311" lon="8.93125">
        <ele>1091.2</ele>
        <time>2015-06-29T07:39:20Z</time>
      </trkpt>
      <trkpt lat="42.33104" lon="8.93137">
        <ele>1090.6</ele>
        <time>2015-06-29T07:39:27Z</time>
      </trkpt>
      <trkpt lat="42.33097" lon="8.93148">
        <ele>1089</ele>
        <time>2015-06-29T07:39:36Z</time>
      </trkpt>
      <trkpt lat="42.33091" lon="8.93154">
        <ele>1088.6</ele>
        <time>2015-06-29T07:39:42Z</time>
      </trkpt>
      <trkpt lat="42.3309" lon="8.93156">
        <ele>1088.4</ele>
        <time>2015-06-29T07:39:43Z</time>
      </trkpt>
      <trkpt lat="42.33086" lon="8.93164">
        <ele>1087.6</ele>
        <time>2015-06-29T07:39:50Z</time>
      </trkpt>
      <trkpt lat="42.33085" lon="8.93164">
        <ele>1087.4</ele>
        <time>2015-06-29T07:39:51Z</time>
      </trkpt>
      <trkpt lat="42.33084" lon="8.93165">
        <ele>1087.4</ele>
        <time>2015-06-29T07:39:52Z</time>
      </trkpt>
      <trkpt lat="42.33077" lon="8.93182">
        <ele>1086.4</ele>
        <time>2015-06-29T07:40:02Z</time>
      </trkpt>
      <trkpt lat="42.33074" lon="8.93186">
        <ele>1086</ele>
        <time>2015-06-29T07:40:05Z</time>
      </trkpt>
      <trkpt lat="42.33072" lon="8.93191">
        <ele>1086</ele>
        <time>2015-06-29T07:40:09Z</time>
      </trkpt>
      <trkpt lat="42.33065" lon="8.93206">
        <ele>1085.8</ele>
        <time>2015-06-29T07:40:19Z</time>
      </trkpt>
      <trkpt lat="42.33066" lon="8.93212">
        <ele>1085.8</ele>
        <time>2015-06-29T07:40:24Z</time>
      </trkpt>
      <trkpt lat="42.33063" lon="8.93218">
        <ele>1085.6</ele>
        <time>2015-06-29T07:40:36Z</time>
      </trkpt>
      <trkpt lat="42.33049" lon="8.93244">
        <ele>1084.8</ele>
        <time>2015-06-29T07:41:05Z</time>
      </trkpt>
      <trkpt lat="42.33041" lon="8.93253">
        <ele>1084.4</ele>
        <time>2015-06-29T07:41:13Z</time>
      </trkpt>
      <trkpt lat="42.3304" lon="8.93255">
        <ele>1084.2</ele>
        <time>2015-06-29T07:41:15Z</time>
      </trkpt>
      <trkpt lat="42.33037" lon="8.93263">
        <ele>1084.2</ele>
        <time>2015-06-29T07:41:21Z</time>
      </trkpt>
      <trkpt lat="42.33036" lon="8.93265">
        <ele>1084.2</ele>
        <time>2015-06-29T07:41:23Z</time>
      </trkpt>
      <trkpt lat="42.33034" lon="8.9328">
        <ele>1083.8</ele>
        <time>2015-06-29T07:41:37Z</time>
      </trkpt>
      <trkpt lat="42.33033" lon="8.93284">
        <ele>1083.6</ele>
        <time>2015-06-29T07:41:41Z</time>
      </trkpt>
      <trkpt lat="42.3303" lon="8.93302">
        <ele>1083.2</ele>
        <time>2015-06-29T07:41:53Z</time>
      </trkpt>
      <trkpt lat="42.33029" lon="8.93305">
        <ele>1083</ele>
        <time>2015-06-29T07:41:55Z</time>
      </trkpt>
      <trkpt lat="42.33022" lon="8.93342">
        <ele>1082.2</ele>
        <time>2015-06-29T07:42:19Z</time>
      </trkpt>
      <trkpt lat="42.33021" lon="8.93345">
        <ele>1082</ele>
        <time>2015-06-29T07:42:21Z</time>
      </trkpt>
      <trkpt lat="42.3302" lon="8.93349">
        <ele>1082.2</ele>
        <time>2015-06-29T07:42:24Z</time>
      </trkpt>
      <trkpt lat="42.33021" lon="8.93409">
        <ele>1084</ele>
        <time>2015-06-29T07:43:01Z</time>
      </trkpt>
      <trkpt lat="42.33019" lon="8.93418">
        <ele>1084</ele>
        <time>2015-06-29T07:43:06Z</time>
      </trkpt>
      <trkpt lat="42.33018" lon="8.93437">
        <ele>1084.4</ele>
        <time>2015-06-29T07:43:19Z</time>
      </trkpt>
      <trkpt lat="42.33018" lon="8.93457">
        <ele>1085</ele>
        <time>2015-06-29T07:43:31Z</time>
      </trkpt>
      <trkpt lat="42.33019" lon="8.9346">
        <ele>1085</ele>
        <time>2015-06-29T07:43:33Z</time>
      </trkpt>
      <trkpt lat="42.3302" lon="8.93479">
        <ele>1085.4</ele>
        <time>2015-06-29T07:43:44Z</time>
      </trkpt>
      <trkpt lat="42.33021" lon="8.93484">
        <ele>1085.4</ele>
        <time>2015-06-29T07:43:47Z</time>
      </trkpt>
      <trkpt lat="42.3303" lon="8.93519">
        <ele>1086.2</ele>
        <time>2015-06-29T07:44:09Z</time>
      </trkpt>
      <trkpt lat="42.3304" lon="8.93563">
        <ele>1087.4</ele>
        <time>2015-06-29T07:44:39Z</time>
      </trkpt>
      <trkpt lat="42.33042" lon="8.93584">
        <ele>1087.8</ele>
        <time>2015-06-29T07:44:54Z</time>
      </trkpt>
      <trkpt lat="42.33045" lon="8.93609">
        <ele>1088.4</ele>
        <time>2015-06-29T07:45:09Z</time>
      </trkpt>
      <trkpt lat="42.33054" lon="8.93639">
        <ele>1088.6</ele>
        <time>2015-06-29T07:45:27Z</time>
      </trkpt>
      <trkpt lat="42.33057" lon="8.93651">
        <ele>1088.4</ele>
        <time>2015-06-29T07:45:34Z</time>
      </trkpt>
      <trkpt lat="42.33072" lon="8.93681">
        <ele>1088</ele>
        <time>2015-06-29T07:45:56Z</time>
      </trkpt>
      <trkpt lat="42.33086" lon="8.93701">
        <ele>1088.2</ele>
        <time>2015-06-29T07:46:14Z</time>
      </trkpt>
      <trkpt lat="42.33083" lon="8.93722">
        <ele>1088.2</ele>
        <time>2015-06-29T07:46:28Z</time>
      </trkpt>
      <trkpt lat="42.33079" lon="8.93732">
        <ele>1088.4</ele>
        <time>2015-06-29T07:46:35Z</time>
      </trkpt>
      <trkpt lat="42.3308" lon="8.9374">
        <ele>1088.6</ele>
        <time>2015-06-29T07:46:39Z</time>
      </trkpt>
      <trkpt lat="42.33063" lon="8.93764">
        <ele>1088.6</ele>
        <time>2015-06-29T07:46:57Z</time>
      </trkpt>
      <trkpt lat="42.33049" lon="8.93783">
        <ele>1089</ele>
        <time>2015-06-29T07:47:12Z</time>
      </trkpt>
      <trkpt lat="42.33047" lon="8.93785">
        <ele>1088.8</ele>
        <time>2015-06-29T07:47:14Z</time>
      </trkpt>
      <trkpt lat="42.33044" lon="8.93789">
        <ele>1088.8</ele>
        <time>2015-06-29T07:47:17Z</time>
      </trkpt>
      <trkpt lat="42.33036" lon="8.93815">
        <ele>1089.2</ele>
        <time>2015-06-29T07:47:34Z</time>
      </trkpt>
      <trkpt lat="42.3304" lon="8.93845">
        <ele>1090.6</ele>
        <time>2015-06-29T07:47:53Z</time>
      </trkpt>
      <trkpt lat="42.33043" lon="8.93862">
        <ele>1091.6</ele>
        <time>2015-06-29T07:48:05Z</time>
      </trkpt>
      <trkpt lat="42.33043" lon="8.93864">
        <ele>1091.6</ele>
        <time>2015-06-29T07:48:06Z</time>
      </trkpt>
      <trkpt lat="42.33053" lon="8.93881">
        <ele>1092.6</ele>
        <time>2015-06-29T07:48:20Z</time>
      </trkpt>
      <trkpt lat="42.33063" lon="8.93895">
        <ele>1093.6</ele>
        <time>2015-06-29T07:48:33Z</time>
      </trkpt>
      <trkpt lat="42.3307" lon="8.93902">
        <ele>1094.4</ele>
        <time>2015-06-29T07:48:41Z</time>
      </trkpt>
      <trkpt lat="42.33072" lon="8.93904">
        <ele>1094.6</ele>
        <time>2015-06-29T07:48:43Z</time>
      </trkpt>
      <trkpt lat="42.33081" lon="8.93912">
        <ele>1095.8</ele>
        <time>2015-06-29T07:48:53Z</time>
      </trkpt>
      <trkpt lat="42.33081" lon="8.93913">
        <ele>1096</ele>
        <time>2015-06-29T07:48:54Z</time>
      </trkpt>
      <trkpt lat="42.33082" lon="8.93918">
        <ele>1096.2</ele>
        <time>2015-06-29T07:48:57Z</time>
      </trkpt>
      <trkpt lat="42.33082" lon="8.93927">
        <ele>1096.6</ele>
        <time>2015-06-29T07:49:02Z</time>
      </trkpt>
      <trkpt lat="42.3308" lon="8.93934">
        <ele>1097.2</ele>
        <time>2015-06-29T07:49:06Z</time>
      </trkpt>
      <trkpt lat="42.33074" lon="8.93945">
        <ele>1098</ele>
        <time>2015-06-29T07:49:15Z</time>
      </trkpt>
      <trkpt lat="42.33067" lon="8.93954">
        <ele>1098.8</ele>
        <time>2015-06-29T07:49:23Z</time>
      </trkpt>
      <trkpt lat="42.33052" lon="8.93964">
        <ele>1100</ele>
        <time>2015-06-29T07:49:36Z</time>
      </trkpt>
      <trkpt lat="42.33038" lon="8.93974">
        <ele>1101</ele>
        <time>2015-06-29T07:49:49Z</time>
      </trkpt>
      <trkpt lat="42.33032" lon="8.93989">
        <ele>1101.6</ele>
        <time>2015-06-29T07:50:01Z</time>
      </trkpt>
      <trkpt lat="42.33028" lon="8.94007">
        <ele>1101.8</ele>
        <time>2015-06-29T07:50:12Z</time>
      </trkpt>
      <trkpt lat="42.33022" lon="8.94024">
        <ele>1101.4</ele>
        <time>2015-06-29T07:50:24Z</time>
      </trkpt>
      <trkpt lat="42.33013" lon="8.94049">
        <ele>1100.8</ele>
        <time>2015-06-29T07:50:41Z</time>
      </trkpt>
      <trkpt lat="42.33012" lon="8.94054">
        <ele>1100.6</ele>
        <time>2015-06-29T07:50:44Z</time>
      </trkpt>
      <trkpt lat="42.33" lon="8.94083">
        <ele>1100</ele>
        <time>2015-06-29T07:51:03Z</time>
      </trkpt>
      <trkpt lat="42.32998" lon="8.94089">
        <ele>1100</ele>
        <time>2015-06-29T07:51:07Z</time>
      </trkpt>
      <trkpt lat="42.32994" lon="8.94098">
        <ele>1099.6</ele>
        <time>2015-06-29T07:51:13Z</time>
      </trkpt>
      <trkpt lat="42.32979" lon="8.94144">
        <ele>1098.8</ele>
        <time>2015-06-29T07:51:43Z</time>
      </trkpt>
      <trkpt lat="42.32978" lon="8.94146">
        <ele>1098.8</ele>
        <time>2015-06-29T07:51:45Z</time>
      </trkpt>
      <trkpt lat="42.32978" lon="8.94152">
        <ele>1098.6</ele>
        <time>2015-06-29T07:51:49Z</time>
      </trkpt>
      <trkpt lat="42.32978" lon="8.94155">
        <ele>1098.6</ele>
        <time>2015-06-29T07:51:51Z</time>
      </trkpt>
      <trkpt lat="42.32977" lon="8.94159">
        <ele>1098.4</ele>
        <time>2015-06-29T07:51:54Z</time>
      </trkpt>
      <trkpt lat="42.32975" lon="8.94163">
        <ele>1098.4</ele>
        <time>2015-06-29T07:51:57Z</time>
      </trkpt>
      <trkpt lat="42.32958" lon="8.94212">
        <ele>1098</ele>
        <time>2015-06-29T07:52:29Z</time>
      </trkpt>
      <trkpt lat="42.32957" lon="8.94214">
        <ele>1098</ele>
        <time>2015-06-29T07:52:31Z</time>
      </trkpt>
      <trkpt lat="42.32948" lon="8.94259">
        <ele>1098.4</ele>
        <time>2015-06-29T07:53:04Z</time>
      </trkpt>
      <trkpt lat="42.32943" lon="8.943">
        <ele>1099.6</ele>
        <time>2015-06-29T07:53:29Z</time>
      </trkpt>
      <trkpt lat="42.32942" lon="8.94311">
        <ele>1099.8</ele>
        <time>2015-06-29T07:53:36Z</time>
      </trkpt>
      <trkpt lat="42.32943" lon="8.94326">
        <ele>1100.4</ele>
        <time>2015-06-29T07:53:47Z</time>
      </trkpt>
      <trkpt lat="42.32943" lon="8.94327">
        <ele>1100.4</ele>
        <time>2015-06-29T07:53:48Z</time>
      </trkpt>
      <trkpt lat="42.32947" lon="8.94372">
        <ele>1101.8</ele>
        <time>2015-06-29T07:54:14Z</time>
      </trkpt>
      <trkpt lat="42.32954" lon="8.94413">
        <ele>1102.6</ele>
        <time>2015-06-29T07:54:39Z</time>
      </trkpt>
      <trkpt lat="42.32957" lon="8.94419">
        <ele>1102.8</ele>
        <time>2015-06-29T07:54:43Z</time>
      </trkpt>
      <trkpt lat="42.32963" lon="8.94437">
        <ele>1102.6</ele>
        <time>2015-06-29T07:54:53Z</time>
      </trkpt>
      <trkpt lat="42.32965" lon="8.94442">
        <ele>1103</ele>
        <time>2015-06-29T07:54:56Z</time>
      </trkpt>
      <trkpt lat="42.32968" lon="8.94451">
        <ele>1103.6</ele>
        <time>2015-06-29T07:55:02Z</time>
      </trkpt>
      <trkpt lat="42.32979" lon="8.94472">
        <ele>1103.4</ele>
        <time>2015-06-29T07:55:18Z</time>
      </trkpt>
      <trkpt lat="42.32988" lon="8.94482">
        <ele>1103</ele>
        <time>2015-06-29T07:55:27Z</time>
      </trkpt>
      <trkpt lat="42.3299" lon="8.94485">
        <ele>1103</ele>
        <time>2015-06-29T07:55:29Z</time>
      </trkpt>
      <trkpt lat="42.33003" lon="8.94505">
        <ele>1102.2</ele>
        <time>2015-06-29T07:55:44Z</time>
      </trkpt>
      <trkpt lat="42.33012" lon="8.94515">
        <ele>1101.6</ele>
        <time>2015-06-29T07:55:53Z</time>
      </trkpt>
      <trkpt lat="42.33021" lon="8.94531">
        <ele>1100.6</ele>
        <time>2015-06-29T07:56:05Z</time>
      </trkpt>
      <trkpt lat="42.33024" lon="8.94535">
        <ele>1100</ele>
        <time>2015-06-29T07:56:09Z</time>
      </trkpt>
      <trkpt lat="42.33029" lon="8.94544">
        <ele>1099.6</ele>
        <time>2015-06-29T07:56:17Z</time>
      </trkpt>
      <trkpt lat="42.33032" lon="8.94548">
        <ele>1099.2</ele>
        <time>2015-06-29T07:56:20Z</time>
      </trkpt>
      <trkpt lat="42.33036" lon="8.94552">
        <ele>1099</ele>
        <time>2015-06-29T07:56:25Z</time>
      </trkpt>
      <trkpt lat="42.33038" lon="8.94568">
        <ele>1098.2</ele>
        <time>2015-06-29T07:56:36Z</time>
      </trkpt>
      <trkpt lat="42.33038" lon="8.94573">
        <ele>1098</ele>
        <time>2015-06-29T07:56:38Z</time>
      </trkpt>
      <trkpt lat="42.33047" lon="8.94598">
        <ele>1097.2</ele>
        <time>2015-06-29T07:56:52Z</time>
      </trkpt>
      <trkpt lat="42.33048" lon="8.94607">
        <ele>1097.2</ele>
        <time>2015-06-29T07:56:57Z</time>
      </trkpt>
      <trkpt lat="42.33048" lon="8.94608">
        <ele>1097</ele>
        <time>2015-06-29T07:56:58Z</time>
      </trkpt>
      <trkpt lat="42.33044" lon="8.94643">
        <ele>1095.6</ele>
        <time>2015-06-29T07:57:19Z</time>
      </trkpt>
      <trkpt lat="42.3304" lon="8.94672">
        <ele>1095.6</ele>
        <time>2015-06-29T07:57:36Z</time>
      </trkpt>
      <trkpt lat="42.33039" lon="8.94676">
        <ele>1095.6</ele>
        <time>2015-06-29T07:57:39Z</time>
      </trkpt>
      <trkpt lat="42.33039" lon="8.94681">
        <ele>1095.6</ele>
        <time>2015-06-29T07:57:42Z</time>
      </trkpt>
      <trkpt lat="42.33024" lon="8.94739">
        <ele>1096.6</ele>
        <time>2015-06-29T07:58:18Z</time>
      </trkpt>
      <trkpt lat="42.33023" lon="8.94743">
        <ele>1096.8</ele>
        <time>2015-06-29T07:58:20Z</time>
      </trkpt>
      <trkpt lat="42.33023" lon="8.94758">
        <ele>1097.6</ele>
        <time>2015-06-29T07:58:31Z</time>
      </trkpt>
      <trkpt lat="42.33023" lon="8.94764">
        <ele>1098</ele>
        <time>2015-06-29T07:58:36Z</time>
      </trkpt>
      <trkpt lat="42.33029" lon="8.9478">
        <ele>1099</ele>
        <time>2015-06-29T07:58:49Z</time>
      </trkpt>
      <trkpt lat="42.33033" lon="8.94794">
        <ele>1099.6</ele>
        <time>2015-06-29T07:58:59Z</time>
      </trkpt>
      <trkpt lat="42.33036" lon="8.94805">
        <ele>1100</ele>
        <time>2015-06-29T07:59:07Z</time>
      </trkpt>
      <trkpt lat="42.33046" lon="8.94826">
        <ele>1101.6</ele>
        <time>2015-06-29T07:59:23Z</time>
      </trkpt>
      <trkpt lat="42.33057" lon="8.94856">
        <ele>1102.2</ele>
        <time>2015-06-29T07:59:47Z</time>
      </trkpt>
      <trkpt lat="42.3307" lon="8.94879">
        <ele>1103.8</ele>
        <time>2015-06-29T08:00:07Z</time>
      </trkpt>
      <trkpt lat="42.33087" lon="8.94902">
        <ele>1105.2</ele>
        <time>2015-06-29T08:00:32Z</time>
      </trkpt>
      <trkpt lat="42.33106" lon="8.94939">
        <ele>1106.2</ele>
        <time>2015-06-29T08:01:02Z</time>
      </trkpt>
      <trkpt lat="42.33109" lon="8.94943">
        <ele>1106.2</ele>
        <time>2015-06-29T08:01:06Z</time>
      </trkpt>
      <trkpt lat="42.33118" lon="8.94955">
        <ele>1107.6</ele>
        <time>2015-06-29T08:01:16Z</time>
      </trkpt>
      <trkpt lat="42.33126" lon="8.94967">
        <ele>1107.8</ele>
        <time>2015-06-29T08:01:26Z</time>
      </trkpt>
      <trkpt lat="42.33146" lon="8.94989">
        <ele>1108.8</ele>
        <time>2015-06-29T08:01:48Z</time>
      </trkpt>
      <trkpt lat="42.33147" lon="8.9499">
        <ele>1109.2</ele>
        <time>2015-06-29T08:01:49Z</time>
      </trkpt>
      <trkpt lat="42.3315" lon="8.94992">
        <ele>1109.2</ele>
        <time>2015-06-29T08:01:52Z</time>
      </trkpt>
      <trkpt lat="42.33167" lon="8.9501">
        <ele>1110.2</ele>
        <time>2015-06-29T08:02:10Z</time>
      </trkpt>
      <trkpt lat="42.33184" lon="8.95026">
        <ele>1111</ele>
        <time>2015-06-29T08:02:27Z</time>
      </trkpt>
      <trkpt lat="42.33197" lon="8.9504">
        <ele>1110</ele>
        <time>2015-06-29T08:02:41Z</time>
      </trkpt>
      <trkpt lat="42.33199" lon="8.95042">
        <ele>1110</ele>
        <time>2015-06-29T08:02:43Z</time>
      </trkpt>
      <trkpt lat="42.33226" lon="8.95084">
        <ele>1110</ele>
        <time>2015-06-29T08:03:28Z</time>
      </trkpt>
      <trkpt lat="42.33227" lon="8.95091">
        <ele>1110.2</ele>
        <time>2015-06-29T08:03:33Z</time>
      </trkpt>
      <trkpt lat="42.33231" lon="8.95104">
        <ele>1111.2</ele>
        <time>2015-06-29T08:03:43Z</time>
      </trkpt>
      <trkpt lat="42.33234" lon="8.95123">
        <ele>1112.6</ele>
        <time>2015-06-29T08:03:58Z</time>
      </trkpt>
      <trkpt lat="42.33238" lon="8.95142">
        <ele>1113</ele>
        <time>2015-06-29T08:04:14Z</time>
      </trkpt>
      <trkpt lat="42.33255" lon="8.9516">
        <ele>1114.4</ele>
        <time>2015-06-29T08:05:56Z</time>
      </trkpt>
      <trkpt lat="42.33287" lon="8.95166">
        <ele>1115.8</ele>
        <time>2015-06-29T08:06:24Z</time>
      </trkpt>
      <trkpt lat="42.33294" lon="8.95166">
        <ele>1116</ele>
        <time>2015-06-29T08:06:31Z</time>
      </trkpt>
      <trkpt lat="42.33299" lon="8.95165">
        <ele>1116.2</ele>
        <time>2015-06-29T08:06:36Z</time>
      </trkpt>
      <trkpt lat="42.33327" lon="8.95157">
        <ele>1116.6</ele>
        <time>2015-06-29T08:07:05Z</time>
      </trkpt>
      <trkpt lat="42.33343" lon="8.95141">
        <ele>1117.6</ele>
        <time>2015-06-29T08:07:28Z</time>
      </trkpt>
      <trkpt lat="42.33352" lon="8.95124">
        <ele>1118.6</ele>
        <time>2015-06-29T08:07:43Z</time>
      </trkpt>
      <trkpt lat="42.33357" lon="8.95116">
        <ele>1119.2</ele>
        <time>2015-06-29T08:07:50Z</time>
      </trkpt>
      <trkpt lat="42.33359" lon="8.9511">
        <ele>1120.2</ele>
        <time>2015-06-29T08:07:55Z</time>
      </trkpt>
    </trkseg>
  </trk>
</gpx>